<?xml version="1.0" encoding="UTF-8" standalone="no" ?>
<gpx xmlns="http://www.topografix.com/GPX/1/1" xmlns:xsi="http://www.w3.org/2001/XMLSchema-instance" xsi:schemaLocation="http://www.topografix.com/GPX/1/1 http://www.topografix.com/GPX/1/1/gpx.xsd" version="1.1" creator="VisuGPX - https://www.visugpx.com">
  <metadata>
    <name>RSPFY-bois de Rochefort</name>
    <desc><![CDATA[marche partant du carrefour de Luynes et passant par le point de vue sur la vallée (161m), le carrefour Sainte-Anne, le Fonds de Bullion et le carrefour Elisabeth. ]]></desc>
  </metadata>
  <trk>
    <name><![CDATA[2024-06-04 08:58]]></name>
    <desc><![CDATA[<p>Heure de départ: 08:58 4 juin 2024<br/>Heure d'arrivée: 11:36 4 juin 2024<br/>Distance: 11,3 km (02:38)<br/>Temps déplacement: 02:11<br/>Vitesse moyenne: 4,26 km/h<br/>Vitesse moyenne mouv.: 5,13 km/h<br/>Vitesse Max.: 7,67 km/h<br/>Altitude minimale: 98 m<br/>Altitude maximale: 163 m<br/>Vitesse de montée: 213,7 m/h<br/>Vitesse de descente: -242,9 m/h<br/>Gain d'altitude: 290 m<br/>Perte d'altitude: -297 m<br/>Temps de montée: 01:21<br/>Temps de descente: 01:13<br/></p><hr align="center" width="480" style="height: 2px; width: 517px"/>]]></desc>
    <trkseg>
      <trkpt lat="48.59185" lon="1.96612">
        <ele>116.7</ele>
        <time>2024-06-04T06:58:02Z</time>
      </trkpt>
      <trkpt lat="48.59175" lon="1.96615">
        <ele>116.4</ele>
        <time>2024-06-04T06:59:28Z</time>
      </trkpt>
      <trkpt lat="48.59169" lon="1.96606">
        <ele>116.1</ele>
        <time>2024-06-04T06:59:51Z</time>
      </trkpt>
      <trkpt lat="48.59178" lon="1.96602">
        <ele>116.4</ele>
        <time>2024-06-04T07:00:13Z</time>
      </trkpt>
      <trkpt lat="48.59169" lon="1.96596">
        <ele>116.1</ele>
        <time>2024-06-04T07:00:27Z</time>
      </trkpt>
      <trkpt lat="48.5916" lon="1.96589">
        <ele>115.6</ele>
        <time>2024-06-04T07:00:35Z</time>
      </trkpt>
      <trkpt lat="48.59153" lon="1.96601">
        <ele>115.3</ele>
        <time>2024-06-04T07:00:43Z</time>
      </trkpt>
      <trkpt lat="48.59151" lon="1.96615">
        <ele>115.4</ele>
        <time>2024-06-04T07:00:50Z</time>
      </trkpt>
      <trkpt lat="48.59153" lon="1.96629">
        <ele>115.2</ele>
        <time>2024-06-04T07:00:57Z</time>
      </trkpt>
      <trkpt lat="48.59153" lon="1.96642">
        <ele>115</ele>
        <time>2024-06-04T07:01:05Z</time>
      </trkpt>
      <trkpt lat="48.59151" lon="1.96657">
        <ele>114.9</ele>
        <time>2024-06-04T07:01:12Z</time>
      </trkpt>
      <trkpt lat="48.59151" lon="1.96671">
        <ele>114.9</ele>
        <time>2024-06-04T07:01:20Z</time>
      </trkpt>
      <trkpt lat="48.59153" lon="1.96685">
        <ele>115</ele>
        <time>2024-06-04T07:01:27Z</time>
      </trkpt>
      <trkpt lat="48.59154" lon="1.96701">
        <ele>115.1</ele>
        <time>2024-06-04T07:01:34Z</time>
      </trkpt>
      <trkpt lat="48.5915" lon="1.96714">
        <ele>114.8</ele>
        <time>2024-06-04T07:01:42Z</time>
      </trkpt>
      <trkpt lat="48.59146" lon="1.96728">
        <ele>114.6</ele>
        <time>2024-06-04T07:01:50Z</time>
      </trkpt>
      <trkpt lat="48.59143" lon="1.96743">
        <ele>114.4</ele>
        <time>2024-06-04T07:01:57Z</time>
      </trkpt>
      <trkpt lat="48.5914" lon="1.96756">
        <ele>114.3</ele>
        <time>2024-06-04T07:02:04Z</time>
      </trkpt>
      <trkpt lat="48.59136" lon="1.96769">
        <ele>114.5</ele>
        <time>2024-06-04T07:02:11Z</time>
      </trkpt>
      <trkpt lat="48.59131" lon="1.96782">
        <ele>114.4</ele>
        <time>2024-06-04T07:02:19Z</time>
      </trkpt>
      <trkpt lat="48.59127" lon="1.96795">
        <ele>114.2</ele>
        <time>2024-06-04T07:02:26Z</time>
      </trkpt>
      <trkpt lat="48.59124" lon="1.96807">
        <ele>113.9</ele>
        <time>2024-06-04T07:02:34Z</time>
      </trkpt>
      <trkpt lat="48.59119" lon="1.96821">
        <ele>113.6</ele>
        <time>2024-06-04T07:02:42Z</time>
      </trkpt>
      <trkpt lat="48.59117" lon="1.96835">
        <ele>113.4</ele>
        <time>2024-06-04T07:02:50Z</time>
      </trkpt>
      <trkpt lat="48.59114" lon="1.96849">
        <ele>113.2</ele>
        <time>2024-06-04T07:02:58Z</time>
      </trkpt>
      <trkpt lat="48.59111" lon="1.96863">
        <ele>113</ele>
        <time>2024-06-04T07:03:05Z</time>
      </trkpt>
      <trkpt lat="48.59107" lon="1.96876">
        <ele>113</ele>
        <time>2024-06-04T07:03:12Z</time>
      </trkpt>
      <trkpt lat="48.59103" lon="1.96888">
        <ele>113</ele>
        <time>2024-06-04T07:03:20Z</time>
      </trkpt>
      <trkpt lat="48.59099" lon="1.96902">
        <ele>113.3</ele>
        <time>2024-06-04T07:03:28Z</time>
      </trkpt>
      <trkpt lat="48.59093" lon="1.96915">
        <ele>113.3</ele>
        <time>2024-06-04T07:03:36Z</time>
      </trkpt>
      <trkpt lat="48.5909" lon="1.96929">
        <ele>113.2</ele>
        <time>2024-06-04T07:03:43Z</time>
      </trkpt>
      <trkpt lat="48.59086" lon="1.96943">
        <ele>113.1</ele>
        <time>2024-06-04T07:03:50Z</time>
      </trkpt>
      <trkpt lat="48.59082" lon="1.96955">
        <ele>113</ele>
        <time>2024-06-04T07:03:57Z</time>
      </trkpt>
      <trkpt lat="48.59077" lon="1.96969">
        <ele>113</ele>
        <time>2024-06-04T07:04:04Z</time>
      </trkpt>
      <trkpt lat="48.59075" lon="1.96984">
        <ele>113</ele>
        <time>2024-06-04T07:04:12Z</time>
      </trkpt>
      <trkpt lat="48.59073" lon="1.96998">
        <ele>113</ele>
        <time>2024-06-04T07:04:18Z</time>
      </trkpt>
      <trkpt lat="48.59069" lon="1.97012">
        <ele>113.2</ele>
        <time>2024-06-04T07:04:26Z</time>
      </trkpt>
      <trkpt lat="48.59065" lon="1.97025">
        <ele>113.3</ele>
        <time>2024-06-04T07:04:33Z</time>
      </trkpt>
      <trkpt lat="48.59064" lon="1.97039">
        <ele>113.3</ele>
        <time>2024-06-04T07:04:40Z</time>
      </trkpt>
      <trkpt lat="48.5906" lon="1.97054">
        <ele>113.1</ele>
        <time>2024-06-04T07:04:47Z</time>
      </trkpt>
      <trkpt lat="48.59058" lon="1.97067">
        <ele>113.1</ele>
        <time>2024-06-04T07:04:54Z</time>
      </trkpt>
      <trkpt lat="48.59055" lon="1.9708">
        <ele>113</ele>
        <time>2024-06-04T07:05:00Z</time>
      </trkpt>
      <trkpt lat="48.59051" lon="1.97094">
        <ele>113</ele>
        <time>2024-06-04T07:05:07Z</time>
      </trkpt>
      <trkpt lat="48.59049" lon="1.97107">
        <ele>113</ele>
        <time>2024-06-04T07:05:13Z</time>
      </trkpt>
      <trkpt lat="48.59047" lon="1.97123">
        <ele>113</ele>
        <time>2024-06-04T07:05:23Z</time>
      </trkpt>
      <trkpt lat="48.59044" lon="1.97136">
        <ele>113</ele>
        <time>2024-06-04T07:05:30Z</time>
      </trkpt>
      <trkpt lat="48.59041" lon="1.9715">
        <ele>113</ele>
        <time>2024-06-04T07:05:36Z</time>
      </trkpt>
      <trkpt lat="48.59038" lon="1.97165">
        <ele>113</ele>
        <time>2024-06-04T07:05:45Z</time>
      </trkpt>
      <trkpt lat="48.59036" lon="1.97178">
        <ele>113</ele>
        <time>2024-06-04T07:05:52Z</time>
      </trkpt>
      <trkpt lat="48.59034" lon="1.97192">
        <ele>113</ele>
        <time>2024-06-04T07:05:59Z</time>
      </trkpt>
      <trkpt lat="48.59031" lon="1.97205">
        <ele>112.7</ele>
        <time>2024-06-04T07:06:06Z</time>
      </trkpt>
      <trkpt lat="48.59029" lon="1.97219">
        <ele>112.1</ele>
        <time>2024-06-04T07:06:15Z</time>
      </trkpt>
      <trkpt lat="48.59026" lon="1.97233">
        <ele>112</ele>
        <time>2024-06-04T07:06:21Z</time>
      </trkpt>
      <trkpt lat="48.59026" lon="1.97247">
        <ele>112</ele>
        <time>2024-06-04T07:06:28Z</time>
      </trkpt>
      <trkpt lat="48.59033" lon="1.97256">
        <ele>112.2</ele>
        <time>2024-06-04T07:06:35Z</time>
      </trkpt>
      <trkpt lat="48.59042" lon="1.97263">
        <ele>112.5</ele>
        <time>2024-06-04T07:06:41Z</time>
      </trkpt>
      <trkpt lat="48.5905" lon="1.9727">
        <ele>112.8</ele>
        <time>2024-06-04T07:06:48Z</time>
      </trkpt>
      <trkpt lat="48.59058" lon="1.97278">
        <ele>113</ele>
        <time>2024-06-04T07:06:55Z</time>
      </trkpt>
      <trkpt lat="48.59066" lon="1.97284">
        <ele>113.1</ele>
        <time>2024-06-04T07:07:03Z</time>
      </trkpt>
      <trkpt lat="48.59076" lon="1.97289">
        <ele>113.3</ele>
        <time>2024-06-04T07:07:12Z</time>
      </trkpt>
      <trkpt lat="48.59083" lon="1.97299">
        <ele>113.8</ele>
        <time>2024-06-04T07:07:21Z</time>
      </trkpt>
      <trkpt lat="48.59091" lon="1.97307">
        <ele>114</ele>
        <time>2024-06-04T07:07:28Z</time>
      </trkpt>
      <trkpt lat="48.59098" lon="1.97316">
        <ele>114</ele>
        <time>2024-06-04T07:07:36Z</time>
      </trkpt>
      <trkpt lat="48.59104" lon="1.97328">
        <ele>114</ele>
        <time>2024-06-04T07:07:43Z</time>
      </trkpt>
      <trkpt lat="48.59113" lon="1.97333">
        <ele>114.1</ele>
        <time>2024-06-04T07:07:51Z</time>
      </trkpt>
      <trkpt lat="48.59122" lon="1.97342">
        <ele>114.4</ele>
        <time>2024-06-04T07:07:58Z</time>
      </trkpt>
      <trkpt lat="48.59131" lon="1.97349">
        <ele>114.7</ele>
        <time>2024-06-04T07:08:04Z</time>
      </trkpt>
      <trkpt lat="48.59139" lon="1.97357">
        <ele>115</ele>
        <time>2024-06-04T07:08:11Z</time>
      </trkpt>
      <trkpt lat="48.59148" lon="1.97362">
        <ele>115.4</ele>
        <time>2024-06-04T07:08:17Z</time>
      </trkpt>
      <trkpt lat="48.59156" lon="1.9737">
        <ele>115.9</ele>
        <time>2024-06-04T07:08:25Z</time>
      </trkpt>
      <trkpt lat="48.59163" lon="1.97379">
        <ele>116.5</ele>
        <time>2024-06-04T07:08:34Z</time>
      </trkpt>
      <trkpt lat="48.59172" lon="1.97385">
        <ele>117.1</ele>
        <time>2024-06-04T07:08:41Z</time>
      </trkpt>
      <trkpt lat="48.5918" lon="1.97394">
        <ele>117.6</ele>
        <time>2024-06-04T07:08:50Z</time>
      </trkpt>
      <trkpt lat="48.59189" lon="1.97397">
        <ele>118.1</ele>
        <time>2024-06-04T07:08:56Z</time>
      </trkpt>
      <trkpt lat="48.59199" lon="1.97404">
        <ele>118.8</ele>
        <time>2024-06-04T07:09:03Z</time>
      </trkpt>
      <trkpt lat="48.59207" lon="1.97411">
        <ele>119.7</ele>
        <time>2024-06-04T07:09:10Z</time>
      </trkpt>
      <trkpt lat="48.59216" lon="1.97418">
        <ele>120.6</ele>
        <time>2024-06-04T07:09:17Z</time>
      </trkpt>
      <trkpt lat="48.59225" lon="1.97423">
        <ele>121.3</ele>
        <time>2024-06-04T07:09:23Z</time>
      </trkpt>
      <trkpt lat="48.59235" lon="1.97425">
        <ele>121.8</ele>
        <time>2024-06-04T07:09:30Z</time>
      </trkpt>
      <trkpt lat="48.59245" lon="1.97425">
        <ele>122.1</ele>
        <time>2024-06-04T07:09:38Z</time>
      </trkpt>
      <trkpt lat="48.59256" lon="1.97423">
        <ele>122.8</ele>
        <time>2024-06-04T07:09:46Z</time>
      </trkpt>
      <trkpt lat="48.59265" lon="1.97421">
        <ele>123.8</ele>
        <time>2024-06-04T07:09:51Z</time>
      </trkpt>
      <trkpt lat="48.59275" lon="1.97418">
        <ele>124.7</ele>
        <time>2024-06-04T07:09:58Z</time>
      </trkpt>
      <trkpt lat="48.59284" lon="1.97417">
        <ele>125.5</ele>
        <time>2024-06-04T07:10:07Z</time>
      </trkpt>
      <trkpt lat="48.59294" lon="1.97417">
        <ele>126.2</ele>
        <time>2024-06-04T07:10:16Z</time>
      </trkpt>
      <trkpt lat="48.59305" lon="1.97417">
        <ele>127</ele>
        <time>2024-06-04T07:10:23Z</time>
      </trkpt>
      <trkpt lat="48.59314" lon="1.97416">
        <ele>127.6</ele>
        <time>2024-06-04T07:10:30Z</time>
      </trkpt>
      <trkpt lat="48.59324" lon="1.97418">
        <ele>128.4</ele>
        <time>2024-06-04T07:10:38Z</time>
      </trkpt>
      <trkpt lat="48.59333" lon="1.97418">
        <ele>129.1</ele>
        <time>2024-06-04T07:10:45Z</time>
      </trkpt>
      <trkpt lat="48.59342" lon="1.9742">
        <ele>129.6</ele>
        <time>2024-06-04T07:10:52Z</time>
      </trkpt>
      <trkpt lat="48.59352" lon="1.97422">
        <ele>130.1</ele>
        <time>2024-06-04T07:11:01Z</time>
      </trkpt>
      <trkpt lat="48.59363" lon="1.97422">
        <ele>130.5</ele>
        <time>2024-06-04T07:11:09Z</time>
      </trkpt>
      <trkpt lat="48.59373" lon="1.97422">
        <ele>131.2</ele>
        <time>2024-06-04T07:11:17Z</time>
      </trkpt>
      <trkpt lat="48.59382" lon="1.97422">
        <ele>132</ele>
        <time>2024-06-04T07:11:23Z</time>
      </trkpt>
      <trkpt lat="48.59392" lon="1.97422">
        <ele>132.6</ele>
        <time>2024-06-04T07:11:32Z</time>
      </trkpt>
      <trkpt lat="48.59402" lon="1.97423">
        <ele>133.3</ele>
        <time>2024-06-04T07:11:39Z</time>
      </trkpt>
      <trkpt lat="48.59411" lon="1.97424">
        <ele>133.9</ele>
        <time>2024-06-04T07:11:47Z</time>
      </trkpt>
      <trkpt lat="48.5942" lon="1.97423">
        <ele>134.5</ele>
        <time>2024-06-04T07:11:54Z</time>
      </trkpt>
      <trkpt lat="48.5943" lon="1.97423">
        <ele>135.2</ele>
        <time>2024-06-04T07:12:04Z</time>
      </trkpt>
      <trkpt lat="48.59439" lon="1.97424">
        <ele>135.9</ele>
        <time>2024-06-04T07:12:12Z</time>
      </trkpt>
      <trkpt lat="48.59448" lon="1.97427">
        <ele>136.6</ele>
        <time>2024-06-04T07:12:21Z</time>
      </trkpt>
      <trkpt lat="48.59457" lon="1.97429">
        <ele>137.2</ele>
        <time>2024-06-04T07:12:31Z</time>
      </trkpt>
      <trkpt lat="48.59465" lon="1.97438">
        <ele>137.7</ele>
        <time>2024-06-04T07:12:49Z</time>
      </trkpt>
      <trkpt lat="48.59467" lon="1.97452">
        <ele>138.3</ele>
        <time>2024-06-04T07:14:32Z</time>
      </trkpt>
      <trkpt lat="48.59467" lon="1.97465">
        <ele>139.3</ele>
        <time>2024-06-04T07:14:39Z</time>
      </trkpt>
      <trkpt lat="48.59467" lon="1.9748">
        <ele>140.1</ele>
        <time>2024-06-04T07:14:54Z</time>
      </trkpt>
      <trkpt lat="48.59471" lon="1.97492">
        <ele>140.7</ele>
        <time>2024-06-04T07:15:02Z</time>
      </trkpt>
      <trkpt lat="48.59473" lon="1.97506">
        <ele>140.9</ele>
        <time>2024-06-04T07:15:11Z</time>
      </trkpt>
      <trkpt lat="48.5947" lon="1.97521">
        <ele>141.1</ele>
        <time>2024-06-04T07:15:19Z</time>
      </trkpt>
      <trkpt lat="48.59465" lon="1.97532">
        <ele>141.4</ele>
        <time>2024-06-04T07:15:27Z</time>
      </trkpt>
      <trkpt lat="48.5946" lon="1.97545">
        <ele>142.3</ele>
        <time>2024-06-04T07:15:37Z</time>
      </trkpt>
      <trkpt lat="48.59454" lon="1.97555">
        <ele>143.3</ele>
        <time>2024-06-04T07:15:47Z</time>
      </trkpt>
      <trkpt lat="48.59448" lon="1.97566">
        <ele>144.1</ele>
        <time>2024-06-04T07:15:55Z</time>
      </trkpt>
      <trkpt lat="48.59444" lon="1.97579">
        <ele>144.9</ele>
        <time>2024-06-04T07:16:03Z</time>
      </trkpt>
      <trkpt lat="48.59439" lon="1.97591">
        <ele>145.7</ele>
        <time>2024-06-04T07:16:12Z</time>
      </trkpt>
      <trkpt lat="48.59434" lon="1.97605">
        <ele>146.5</ele>
        <time>2024-06-04T07:16:20Z</time>
      </trkpt>
      <trkpt lat="48.59432" lon="1.97619">
        <ele>147.3</ele>
        <time>2024-06-04T07:16:27Z</time>
      </trkpt>
      <trkpt lat="48.5943" lon="1.97632">
        <ele>148.2</ele>
        <time>2024-06-04T07:16:35Z</time>
      </trkpt>
      <trkpt lat="48.59428" lon="1.97646">
        <ele>149.3</ele>
        <time>2024-06-04T07:16:42Z</time>
      </trkpt>
      <trkpt lat="48.59428" lon="1.9766">
        <ele>150.3</ele>
        <time>2024-06-04T07:16:51Z</time>
      </trkpt>
      <trkpt lat="48.59427" lon="1.97674">
        <ele>151.5</ele>
        <time>2024-06-04T07:16:59Z</time>
      </trkpt>
      <trkpt lat="48.59428" lon="1.97688">
        <ele>152.5</ele>
        <time>2024-06-04T07:17:07Z</time>
      </trkpt>
      <trkpt lat="48.59432" lon="1.977">
        <ele>153.3</ele>
        <time>2024-06-04T07:17:14Z</time>
      </trkpt>
      <trkpt lat="48.59435" lon="1.97714">
        <ele>154.1</ele>
        <time>2024-06-04T07:17:22Z</time>
      </trkpt>
      <trkpt lat="48.59438" lon="1.97727">
        <ele>154.7</ele>
        <time>2024-06-04T07:17:28Z</time>
      </trkpt>
      <trkpt lat="48.59439" lon="1.97741">
        <ele>155.6</ele>
        <time>2024-06-04T07:17:36Z</time>
      </trkpt>
      <trkpt lat="48.59429" lon="1.97743">
        <ele>156.2</ele>
        <time>2024-06-04T07:17:48Z</time>
      </trkpt>
      <trkpt lat="48.59421" lon="1.97737">
        <ele>156.3</ele>
        <time>2024-06-04T07:17:55Z</time>
      </trkpt>
      <trkpt lat="48.59411" lon="1.97735">
        <ele>156.7</ele>
        <time>2024-06-04T07:18:02Z</time>
      </trkpt>
      <trkpt lat="48.59401" lon="1.9773">
        <ele>156.8</ele>
        <time>2024-06-04T07:18:10Z</time>
      </trkpt>
      <trkpt lat="48.59393" lon="1.97723">
        <ele>156.9</ele>
        <time>2024-06-04T07:18:16Z</time>
      </trkpt>
      <trkpt lat="48.59384" lon="1.97719">
        <ele>156.9</ele>
        <time>2024-06-04T07:18:24Z</time>
      </trkpt>
      <trkpt lat="48.59376" lon="1.97709">
        <ele>156.5</ele>
        <time>2024-06-04T07:18:32Z</time>
      </trkpt>
      <trkpt lat="48.59367" lon="1.97707">
        <ele>156.4</ele>
        <time>2024-06-04T07:18:40Z</time>
      </trkpt>
      <trkpt lat="48.59357" lon="1.97708">
        <ele>156.4</ele>
        <time>2024-06-04T07:18:48Z</time>
      </trkpt>
      <trkpt lat="48.59351" lon="1.9772">
        <ele>156.6</ele>
        <time>2024-06-04T07:18:57Z</time>
      </trkpt>
      <trkpt lat="48.59347" lon="1.97734">
        <ele>156.5</ele>
        <time>2024-06-04T07:19:06Z</time>
      </trkpt>
      <trkpt lat="48.59344" lon="1.97747">
        <ele>156.4</ele>
        <time>2024-06-04T07:19:14Z</time>
      </trkpt>
      <trkpt lat="48.59339" lon="1.97759">
        <ele>156.2</ele>
        <time>2024-06-04T07:19:23Z</time>
      </trkpt>
      <trkpt lat="48.59336" lon="1.97773">
        <ele>156.1</ele>
        <time>2024-06-04T07:19:33Z</time>
      </trkpt>
      <trkpt lat="48.59339" lon="1.97788">
        <ele>156.2</ele>
        <time>2024-06-04T07:19:42Z</time>
      </trkpt>
      <trkpt lat="48.59344" lon="1.978">
        <ele>156.4</ele>
        <time>2024-06-04T07:19:49Z</time>
      </trkpt>
      <trkpt lat="48.59344" lon="1.97816">
        <ele>156.1</ele>
        <time>2024-06-04T07:19:56Z</time>
      </trkpt>
      <trkpt lat="48.59348" lon="1.97829">
        <ele>156.1</ele>
        <time>2024-06-04T07:20:03Z</time>
      </trkpt>
      <trkpt lat="48.59352" lon="1.97842">
        <ele>156.2</ele>
        <time>2024-06-04T07:20:11Z</time>
      </trkpt>
      <trkpt lat="48.59356" lon="1.97856">
        <ele>156.3</ele>
        <time>2024-06-04T07:20:19Z</time>
      </trkpt>
      <trkpt lat="48.59361" lon="1.97869">
        <ele>156.9</ele>
        <time>2024-06-04T07:20:26Z</time>
      </trkpt>
      <trkpt lat="48.59364" lon="1.97883">
        <ele>157.2</ele>
        <time>2024-06-04T07:20:33Z</time>
      </trkpt>
      <trkpt lat="48.59363" lon="1.97897">
        <ele>156.8</ele>
        <time>2024-06-04T07:20:41Z</time>
      </trkpt>
      <trkpt lat="48.59364" lon="1.97912">
        <ele>156.5</ele>
        <time>2024-06-04T07:20:49Z</time>
      </trkpt>
      <trkpt lat="48.59368" lon="1.97925">
        <ele>157</ele>
        <time>2024-06-04T07:20:56Z</time>
      </trkpt>
      <trkpt lat="48.59368" lon="1.9794">
        <ele>157.4</ele>
        <time>2024-06-04T07:21:04Z</time>
      </trkpt>
      <trkpt lat="48.59366" lon="1.97955">
        <ele>157.6</ele>
        <time>2024-06-04T07:21:12Z</time>
      </trkpt>
      <trkpt lat="48.59362" lon="1.97967">
        <ele>157.8</ele>
        <time>2024-06-04T07:21:18Z</time>
      </trkpt>
      <trkpt lat="48.59359" lon="1.97981">
        <ele>157.7</ele>
        <time>2024-06-04T07:21:25Z</time>
      </trkpt>
      <trkpt lat="48.59358" lon="1.97996">
        <ele>157.7</ele>
        <time>2024-06-04T07:21:32Z</time>
      </trkpt>
      <trkpt lat="48.5936" lon="1.98009">
        <ele>157.8</ele>
        <time>2024-06-04T07:21:38Z</time>
      </trkpt>
      <trkpt lat="48.59362" lon="1.98023">
        <ele>158</ele>
        <time>2024-06-04T07:21:44Z</time>
      </trkpt>
      <trkpt lat="48.59365" lon="1.98037">
        <ele>157.5</ele>
        <time>2024-06-04T07:21:51Z</time>
      </trkpt>
      <trkpt lat="48.59371" lon="1.98048">
        <ele>156.9</ele>
        <time>2024-06-04T07:21:58Z</time>
      </trkpt>
      <trkpt lat="48.59376" lon="1.9806">
        <ele>156.2</ele>
        <time>2024-06-04T07:22:07Z</time>
      </trkpt>
      <trkpt lat="48.59384" lon="1.98068">
        <ele>156.2</ele>
        <time>2024-06-04T07:22:14Z</time>
      </trkpt>
      <trkpt lat="48.5939" lon="1.98079">
        <ele>156.2</ele>
        <time>2024-06-04T07:22:22Z</time>
      </trkpt>
      <trkpt lat="48.594" lon="1.98083">
        <ele>156</ele>
        <time>2024-06-04T07:22:30Z</time>
      </trkpt>
      <trkpt lat="48.59409" lon="1.98087">
        <ele>155.7</ele>
        <time>2024-06-04T07:22:38Z</time>
      </trkpt>
      <trkpt lat="48.59418" lon="1.98086">
        <ele>155.9</ele>
        <time>2024-06-04T07:22:45Z</time>
      </trkpt>
      <trkpt lat="48.59427" lon="1.9808">
        <ele>156.6</ele>
        <time>2024-06-04T07:22:51Z</time>
      </trkpt>
      <trkpt lat="48.59435" lon="1.98071">
        <ele>157.3</ele>
        <time>2024-06-04T07:22:58Z</time>
      </trkpt>
      <trkpt lat="48.59443" lon="1.98062">
        <ele>157.7</ele>
        <time>2024-06-04T07:23:06Z</time>
      </trkpt>
      <trkpt lat="48.5945" lon="1.98053">
        <ele>158.1</ele>
        <time>2024-06-04T07:23:13Z</time>
      </trkpt>
      <trkpt lat="48.59458" lon="1.98044">
        <ele>158.4</ele>
        <time>2024-06-04T07:23:19Z</time>
      </trkpt>
      <trkpt lat="48.59465" lon="1.98033">
        <ele>158.8</ele>
        <time>2024-06-04T07:23:26Z</time>
      </trkpt>
      <trkpt lat="48.59471" lon="1.98022">
        <ele>159</ele>
        <time>2024-06-04T07:23:33Z</time>
      </trkpt>
      <trkpt lat="48.59478" lon="1.98013">
        <ele>158.8</ele>
        <time>2024-06-04T07:23:40Z</time>
      </trkpt>
      <trkpt lat="48.59486" lon="1.98003">
        <ele>158.5</ele>
        <time>2024-06-04T07:23:47Z</time>
      </trkpt>
      <trkpt lat="48.59494" lon="1.97995">
        <ele>158.4</ele>
        <time>2024-06-04T07:23:54Z</time>
      </trkpt>
      <trkpt lat="48.59504" lon="1.97993">
        <ele>158.2</ele>
        <time>2024-06-04T07:24:02Z</time>
      </trkpt>
      <trkpt lat="48.59513" lon="1.97996">
        <ele>158.1</ele>
        <time>2024-06-04T07:24:09Z</time>
      </trkpt>
      <trkpt lat="48.59522" lon="1.98">
        <ele>158</ele>
        <time>2024-06-04T07:24:17Z</time>
      </trkpt>
      <trkpt lat="48.59531" lon="1.98004">
        <ele>157.8</ele>
        <time>2024-06-04T07:24:24Z</time>
      </trkpt>
      <trkpt lat="48.59539" lon="1.98012">
        <ele>157.3</ele>
        <time>2024-06-04T07:24:31Z</time>
      </trkpt>
      <trkpt lat="48.59546" lon="1.98023">
        <ele>157.1</ele>
        <time>2024-06-04T07:24:40Z</time>
      </trkpt>
      <trkpt lat="48.59555" lon="1.9803">
        <ele>156.9</ele>
        <time>2024-06-04T07:24:48Z</time>
      </trkpt>
      <trkpt lat="48.59565" lon="1.98034">
        <ele>155.9</ele>
        <time>2024-06-04T07:24:55Z</time>
      </trkpt>
      <trkpt lat="48.59574" lon="1.9804">
        <ele>154.9</ele>
        <time>2024-06-04T07:25:03Z</time>
      </trkpt>
      <trkpt lat="48.59583" lon="1.98046">
        <ele>154.1</ele>
        <time>2024-06-04T07:25:11Z</time>
      </trkpt>
      <trkpt lat="48.5959" lon="1.98054">
        <ele>153.1</ele>
        <time>2024-06-04T07:25:17Z</time>
      </trkpt>
      <trkpt lat="48.59599" lon="1.98063">
        <ele>151.9</ele>
        <time>2024-06-04T07:25:23Z</time>
      </trkpt>
      <trkpt lat="48.59606" lon="1.98072">
        <ele>151.2</ele>
        <time>2024-06-04T07:25:28Z</time>
      </trkpt>
      <trkpt lat="48.59613" lon="1.98082">
        <ele>150.8</ele>
        <time>2024-06-04T07:25:35Z</time>
      </trkpt>
      <trkpt lat="48.5962" lon="1.98092">
        <ele>150.7</ele>
        <time>2024-06-04T07:25:43Z</time>
      </trkpt>
      <trkpt lat="48.59626" lon="1.98103">
        <ele>150.7</ele>
        <time>2024-06-04T07:25:51Z</time>
      </trkpt>
      <trkpt lat="48.59634" lon="1.9811">
        <ele>150.3</ele>
        <time>2024-06-04T07:25:57Z</time>
      </trkpt>
      <trkpt lat="48.59643" lon="1.98117">
        <ele>150.1</ele>
        <time>2024-06-04T07:26:03Z</time>
      </trkpt>
      <trkpt lat="48.59651" lon="1.98124">
        <ele>150.1</ele>
        <time>2024-06-04T07:26:09Z</time>
      </trkpt>
      <trkpt lat="48.59658" lon="1.98132">
        <ele>150.1</ele>
        <time>2024-06-04T07:26:15Z</time>
      </trkpt>
      <trkpt lat="48.59665" lon="1.9814">
        <ele>150</ele>
        <time>2024-06-04T07:26:21Z</time>
      </trkpt>
      <trkpt lat="48.59673" lon="1.98149">
        <ele>149.7</ele>
        <time>2024-06-04T07:26:27Z</time>
      </trkpt>
      <trkpt lat="48.59678" lon="1.98162">
        <ele>149.2</ele>
        <time>2024-06-04T07:26:34Z</time>
      </trkpt>
      <trkpt lat="48.59686" lon="1.98173">
        <ele>148.3</ele>
        <time>2024-06-04T07:26:41Z</time>
      </trkpt>
      <trkpt lat="48.59693" lon="1.98181">
        <ele>147.5</ele>
        <time>2024-06-04T07:26:48Z</time>
      </trkpt>
      <trkpt lat="48.59701" lon="1.98191">
        <ele>146.7</ele>
        <time>2024-06-04T07:26:55Z</time>
      </trkpt>
      <trkpt lat="48.5971" lon="1.98196">
        <ele>145.8</ele>
        <time>2024-06-04T07:27:01Z</time>
      </trkpt>
      <trkpt lat="48.59719" lon="1.98198">
        <ele>144.9</ele>
        <time>2024-06-04T07:27:07Z</time>
      </trkpt>
      <trkpt lat="48.59728" lon="1.98199">
        <ele>144.3</ele>
        <time>2024-06-04T07:27:13Z</time>
      </trkpt>
      <trkpt lat="48.59738" lon="1.98203">
        <ele>143.4</ele>
        <time>2024-06-04T07:27:20Z</time>
      </trkpt>
      <trkpt lat="48.59747" lon="1.98208">
        <ele>142.7</ele>
        <time>2024-06-04T07:27:28Z</time>
      </trkpt>
      <trkpt lat="48.59756" lon="1.98214">
        <ele>141.8</ele>
        <time>2024-06-04T07:27:36Z</time>
      </trkpt>
      <trkpt lat="48.59765" lon="1.9822">
        <ele>141</ele>
        <time>2024-06-04T07:27:44Z</time>
      </trkpt>
      <trkpt lat="48.59774" lon="1.98226">
        <ele>140</ele>
        <time>2024-06-04T07:27:52Z</time>
      </trkpt>
      <trkpt lat="48.59778" lon="1.9824">
        <ele>138.7</ele>
        <time>2024-06-04T07:28:02Z</time>
      </trkpt>
      <trkpt lat="48.59786" lon="1.98249">
        <ele>137.2</ele>
        <time>2024-06-04T07:28:09Z</time>
      </trkpt>
      <trkpt lat="48.59795" lon="1.9825">
        <ele>136.1</ele>
        <time>2024-06-04T07:28:15Z</time>
      </trkpt>
      <trkpt lat="48.59804" lon="1.98251">
        <ele>135</ele>
        <time>2024-06-04T07:28:21Z</time>
      </trkpt>
      <trkpt lat="48.59815" lon="1.98253">
        <ele>133.5</ele>
        <time>2024-06-04T07:28:28Z</time>
      </trkpt>
      <trkpt lat="48.59823" lon="1.98255">
        <ele>132.2</ele>
        <time>2024-06-04T07:28:35Z</time>
      </trkpt>
      <trkpt lat="48.59833" lon="1.98258">
        <ele>130.8</ele>
        <time>2024-06-04T07:28:43Z</time>
      </trkpt>
      <trkpt lat="48.59842" lon="1.98264">
        <ele>129.5</ele>
        <time>2024-06-04T07:28:50Z</time>
      </trkpt>
      <trkpt lat="48.59851" lon="1.98268">
        <ele>128.5</ele>
        <time>2024-06-04T07:28:56Z</time>
      </trkpt>
      <trkpt lat="48.5986" lon="1.98269">
        <ele>127.4</ele>
        <time>2024-06-04T07:29:03Z</time>
      </trkpt>
      <trkpt lat="48.59869" lon="1.98272">
        <ele>127.3</ele>
        <time>2024-06-04T07:29:08Z</time>
      </trkpt>
      <trkpt lat="48.59879" lon="1.98275">
        <ele>127.2</ele>
        <time>2024-06-04T07:29:13Z</time>
      </trkpt>
      <trkpt lat="48.59886" lon="1.98285">
        <ele>126.5</ele>
        <time>2024-06-04T07:29:21Z</time>
      </trkpt>
      <trkpt lat="48.59891" lon="1.98297">
        <ele>125.8</ele>
        <time>2024-06-04T07:29:30Z</time>
      </trkpt>
      <trkpt lat="48.59897" lon="1.98307">
        <ele>125.3</ele>
        <time>2024-06-04T07:29:38Z</time>
      </trkpt>
      <trkpt lat="48.59904" lon="1.98316">
        <ele>124.9</ele>
        <time>2024-06-04T07:29:45Z</time>
      </trkpt>
      <trkpt lat="48.5991" lon="1.98327">
        <ele>124.4</ele>
        <time>2024-06-04T07:29:52Z</time>
      </trkpt>
      <trkpt lat="48.59915" lon="1.98341">
        <ele>123.2</ele>
        <time>2024-06-04T07:30:01Z</time>
      </trkpt>
      <trkpt lat="48.59923" lon="1.98348">
        <ele>122.7</ele>
        <time>2024-06-04T07:30:07Z</time>
      </trkpt>
      <trkpt lat="48.59931" lon="1.98356">
        <ele>122.1</ele>
        <time>2024-06-04T07:30:13Z</time>
      </trkpt>
      <trkpt lat="48.5994" lon="1.98365">
        <ele>121.6</ele>
        <time>2024-06-04T07:30:20Z</time>
      </trkpt>
      <trkpt lat="48.59943" lon="1.98379">
        <ele>120.7</ele>
        <time>2024-06-04T07:30:28Z</time>
      </trkpt>
      <trkpt lat="48.59949" lon="1.9839">
        <ele>120.3</ele>
        <time>2024-06-04T07:30:36Z</time>
      </trkpt>
      <trkpt lat="48.59953" lon="1.98403">
        <ele>119.5</ele>
        <time>2024-06-04T07:30:44Z</time>
      </trkpt>
      <trkpt lat="48.59963" lon="1.98409">
        <ele>119.4</ele>
        <time>2024-06-04T07:30:49Z</time>
      </trkpt>
      <trkpt lat="48.59971" lon="1.98416">
        <ele>119</ele>
        <time>2024-06-04T07:30:55Z</time>
      </trkpt>
      <trkpt lat="48.59978" lon="1.98425">
        <ele>118.9</ele>
        <time>2024-06-04T07:31:01Z</time>
      </trkpt>
      <trkpt lat="48.59986" lon="1.98432">
        <ele>118.9</ele>
        <time>2024-06-04T07:31:06Z</time>
      </trkpt>
      <trkpt lat="48.59994" lon="1.98441">
        <ele>118.8</ele>
        <time>2024-06-04T07:31:12Z</time>
      </trkpt>
      <trkpt lat="48.59998" lon="1.98455">
        <ele>117.7</ele>
        <time>2024-06-04T07:31:20Z</time>
      </trkpt>
      <trkpt lat="48.60004" lon="1.98467">
        <ele>116.8</ele>
        <time>2024-06-04T07:31:30Z</time>
      </trkpt>
      <trkpt lat="48.60013" lon="1.98471">
        <ele>117.1</ele>
        <time>2024-06-04T07:31:36Z</time>
      </trkpt>
      <trkpt lat="48.60022" lon="1.98476">
        <ele>117.3</ele>
        <time>2024-06-04T07:31:47Z</time>
      </trkpt>
      <trkpt lat="48.60026" lon="1.98488">
        <ele>116.7</ele>
        <time>2024-06-04T07:31:54Z</time>
      </trkpt>
      <trkpt lat="48.6003" lon="1.98502">
        <ele>115.8</ele>
        <time>2024-06-04T07:32:01Z</time>
      </trkpt>
      <trkpt lat="48.60036" lon="1.98513">
        <ele>115</ele>
        <time>2024-06-04T07:32:08Z</time>
      </trkpt>
      <trkpt lat="48.6004" lon="1.98526">
        <ele>114.1</ele>
        <time>2024-06-04T07:32:15Z</time>
      </trkpt>
      <trkpt lat="48.60047" lon="1.98536">
        <ele>113.6</ele>
        <time>2024-06-04T07:32:22Z</time>
      </trkpt>
      <trkpt lat="48.60054" lon="1.98547">
        <ele>113.3</ele>
        <time>2024-06-04T07:32:29Z</time>
      </trkpt>
      <trkpt lat="48.6006" lon="1.98558">
        <ele>112.8</ele>
        <time>2024-06-04T07:32:36Z</time>
      </trkpt>
      <trkpt lat="48.60069" lon="1.98565">
        <ele>112.3</ele>
        <time>2024-06-04T07:32:43Z</time>
      </trkpt>
      <trkpt lat="48.60076" lon="1.98575">
        <ele>112.1</ele>
        <time>2024-06-04T07:32:49Z</time>
      </trkpt>
      <trkpt lat="48.60085" lon="1.9858">
        <ele>111.9</ele>
        <time>2024-06-04T07:32:55Z</time>
      </trkpt>
      <trkpt lat="48.60095" lon="1.98583">
        <ele>111.6</ele>
        <time>2024-06-04T07:33:01Z</time>
      </trkpt>
      <trkpt lat="48.60104" lon="1.98585">
        <ele>111.2</ele>
        <time>2024-06-04T07:33:08Z</time>
      </trkpt>
      <trkpt lat="48.60113" lon="1.9859">
        <ele>110.6</ele>
        <time>2024-06-04T07:33:18Z</time>
      </trkpt>
      <trkpt lat="48.60119" lon="1.98602">
        <ele>109.9</ele>
        <time>2024-06-04T07:33:27Z</time>
      </trkpt>
      <trkpt lat="48.60117" lon="1.98615">
        <ele>109.8</ele>
        <time>2024-06-04T07:33:34Z</time>
      </trkpt>
      <trkpt lat="48.60124" lon="1.98624">
        <ele>109.5</ele>
        <time>2024-06-04T07:33:41Z</time>
      </trkpt>
      <trkpt lat="48.60133" lon="1.98629">
        <ele>109.2</ele>
        <time>2024-06-04T07:33:47Z</time>
      </trkpt>
      <trkpt lat="48.60141" lon="1.98636">
        <ele>108.9</ele>
        <time>2024-06-04T07:33:52Z</time>
      </trkpt>
      <trkpt lat="48.60149" lon="1.98644">
        <ele>108.6</ele>
        <time>2024-06-04T07:33:57Z</time>
      </trkpt>
      <trkpt lat="48.60158" lon="1.98646">
        <ele>108.3</ele>
        <time>2024-06-04T07:34:14Z</time>
      </trkpt>
      <trkpt lat="48.60166" lon="1.9864">
        <ele>108</ele>
        <time>2024-06-04T07:34:26Z</time>
      </trkpt>
      <trkpt lat="48.60175" lon="1.98635">
        <ele>107.7</ele>
        <time>2024-06-04T07:34:36Z</time>
      </trkpt>
      <trkpt lat="48.60182" lon="1.98626">
        <ele>107.4</ele>
        <time>2024-06-04T07:34:43Z</time>
      </trkpt>
      <trkpt lat="48.6019" lon="1.98618">
        <ele>107.2</ele>
        <time>2024-06-04T07:34:50Z</time>
      </trkpt>
      <trkpt lat="48.60198" lon="1.98613">
        <ele>106.7</ele>
        <time>2024-06-04T07:34:57Z</time>
      </trkpt>
      <trkpt lat="48.60207" lon="1.98607">
        <ele>106</ele>
        <time>2024-06-04T07:35:05Z</time>
      </trkpt>
      <trkpt lat="48.60214" lon="1.98598">
        <ele>105.4</ele>
        <time>2024-06-04T07:35:13Z</time>
      </trkpt>
      <trkpt lat="48.60223" lon="1.98592">
        <ele>105</ele>
        <time>2024-06-04T07:35:21Z</time>
      </trkpt>
      <trkpt lat="48.60232" lon="1.98584">
        <ele>104.6</ele>
        <time>2024-06-04T07:35:29Z</time>
      </trkpt>
      <trkpt lat="48.60241" lon="1.98577">
        <ele>104.3</ele>
        <time>2024-06-04T07:35:36Z</time>
      </trkpt>
      <trkpt lat="48.60249" lon="1.98569">
        <ele>104</ele>
        <time>2024-06-04T07:35:43Z</time>
      </trkpt>
      <trkpt lat="48.60257" lon="1.98558">
        <ele>104</ele>
        <time>2024-06-04T07:35:49Z</time>
      </trkpt>
      <trkpt lat="48.60263" lon="1.98547">
        <ele>104.2</ele>
        <time>2024-06-04T07:35:55Z</time>
      </trkpt>
      <trkpt lat="48.6027" lon="1.98538">
        <ele>104.2</ele>
        <time>2024-06-04T07:36:01Z</time>
      </trkpt>
      <trkpt lat="48.60276" lon="1.98526">
        <ele>104.1</ele>
        <time>2024-06-04T07:36:08Z</time>
      </trkpt>
      <trkpt lat="48.60281" lon="1.98513">
        <ele>104.5</ele>
        <time>2024-06-04T07:36:15Z</time>
      </trkpt>
      <trkpt lat="48.60288" lon="1.98501">
        <ele>105</ele>
        <time>2024-06-04T07:36:24Z</time>
      </trkpt>
      <trkpt lat="48.60295" lon="1.98491">
        <ele>105.3</ele>
        <time>2024-06-04T07:36:31Z</time>
      </trkpt>
      <trkpt lat="48.60302" lon="1.9848">
        <ele>105.7</ele>
        <time>2024-06-04T07:36:37Z</time>
      </trkpt>
      <trkpt lat="48.6031" lon="1.98471">
        <ele>105.9</ele>
        <time>2024-06-04T07:36:43Z</time>
      </trkpt>
      <trkpt lat="48.60318" lon="1.98463">
        <ele>105.9</ele>
        <time>2024-06-04T07:36:50Z</time>
      </trkpt>
      <trkpt lat="48.60324" lon="1.98453">
        <ele>106</ele>
        <time>2024-06-04T07:36:56Z</time>
      </trkpt>
      <trkpt lat="48.60332" lon="1.98444">
        <ele>106</ele>
        <time>2024-06-04T07:37:04Z</time>
      </trkpt>
      <trkpt lat="48.60339" lon="1.98436">
        <ele>105.6</ele>
        <time>2024-06-04T07:37:11Z</time>
      </trkpt>
      <trkpt lat="48.60347" lon="1.98428">
        <ele>105</ele>
        <time>2024-06-04T07:37:18Z</time>
      </trkpt>
      <trkpt lat="48.60354" lon="1.98418">
        <ele>104.5</ele>
        <time>2024-06-04T07:37:25Z</time>
      </trkpt>
      <trkpt lat="48.60361" lon="1.98408">
        <ele>104</ele>
        <time>2024-06-04T07:37:31Z</time>
      </trkpt>
      <trkpt lat="48.60369" lon="1.98401">
        <ele>103.4</ele>
        <time>2024-06-04T07:37:38Z</time>
      </trkpt>
      <trkpt lat="48.60378" lon="1.98396">
        <ele>102.8</ele>
        <time>2024-06-04T07:37:46Z</time>
      </trkpt>
      <trkpt lat="48.60388" lon="1.98392">
        <ele>102.1</ele>
        <time>2024-06-04T07:37:53Z</time>
      </trkpt>
      <trkpt lat="48.60397" lon="1.98388">
        <ele>101.7</ele>
        <time>2024-06-04T07:38:00Z</time>
      </trkpt>
      <trkpt lat="48.60406" lon="1.98384">
        <ele>101.5</ele>
        <time>2024-06-04T07:38:06Z</time>
      </trkpt>
      <trkpt lat="48.60415" lon="1.98379">
        <ele>101.1</ele>
        <time>2024-06-04T07:38:13Z</time>
      </trkpt>
      <trkpt lat="48.60423" lon="1.98373">
        <ele>100.8</ele>
        <time>2024-06-04T07:38:19Z</time>
      </trkpt>
      <trkpt lat="48.60433" lon="1.98369">
        <ele>100.4</ele>
        <time>2024-06-04T07:38:26Z</time>
      </trkpt>
      <trkpt lat="48.60442" lon="1.98366">
        <ele>100.1</ele>
        <time>2024-06-04T07:38:35Z</time>
      </trkpt>
      <trkpt lat="48.60452" lon="1.98368">
        <ele>100</ele>
        <time>2024-06-04T07:38:45Z</time>
      </trkpt>
      <trkpt lat="48.60462" lon="1.98367">
        <ele>100</ele>
        <time>2024-06-04T07:38:55Z</time>
      </trkpt>
      <trkpt lat="48.60471" lon="1.98368">
        <ele>100</ele>
        <time>2024-06-04T07:39:03Z</time>
      </trkpt>
      <trkpt lat="48.6048" lon="1.98367">
        <ele>100.2</ele>
        <time>2024-06-04T07:39:11Z</time>
      </trkpt>
      <trkpt lat="48.60489" lon="1.98364">
        <ele>100.6</ele>
        <time>2024-06-04T07:39:18Z</time>
      </trkpt>
      <trkpt lat="48.60498" lon="1.98361">
        <ele>100.9</ele>
        <time>2024-06-04T07:39:24Z</time>
      </trkpt>
      <trkpt lat="48.60507" lon="1.98358">
        <ele>101.3</ele>
        <time>2024-06-04T07:39:30Z</time>
      </trkpt>
      <trkpt lat="48.60517" lon="1.98358">
        <ele>101.6</ele>
        <time>2024-06-04T07:39:37Z</time>
      </trkpt>
      <trkpt lat="48.60526" lon="1.98354">
        <ele>101.9</ele>
        <time>2024-06-04T07:39:46Z</time>
      </trkpt>
      <trkpt lat="48.6053" lon="1.98342">
        <ele>102.1</ele>
        <time>2024-06-04T07:40:07Z</time>
      </trkpt>
      <trkpt lat="48.60531" lon="1.98328">
        <ele>102.3</ele>
        <time>2024-06-04T07:40:54Z</time>
      </trkpt>
      <trkpt lat="48.60529" lon="1.98342">
        <ele>102</ele>
        <time>2024-06-04T07:41:12Z</time>
      </trkpt>
      <trkpt lat="48.60521" lon="1.98348">
        <ele>101.8</ele>
        <time>2024-06-04T07:42:30Z</time>
      </trkpt>
      <trkpt lat="48.60513" lon="1.98341">
        <ele>101.5</ele>
        <time>2024-06-04T07:42:38Z</time>
      </trkpt>
      <trkpt lat="48.60506" lon="1.98331">
        <ele>101.3</ele>
        <time>2024-06-04T07:42:47Z</time>
      </trkpt>
      <trkpt lat="48.60499" lon="1.98323">
        <ele>101.4</ele>
        <time>2024-06-04T07:42:53Z</time>
      </trkpt>
      <trkpt lat="48.60489" lon="1.9832">
        <ele>101.3</ele>
        <time>2024-06-04T07:42:59Z</time>
      </trkpt>
      <trkpt lat="48.60482" lon="1.98312">
        <ele>101.3</ele>
        <time>2024-06-04T07:43:06Z</time>
      </trkpt>
      <trkpt lat="48.60474" lon="1.98303">
        <ele>101.2</ele>
        <time>2024-06-04T07:43:13Z</time>
      </trkpt>
      <trkpt lat="48.60468" lon="1.98292">
        <ele>101.4</ele>
        <time>2024-06-04T07:43:21Z</time>
      </trkpt>
      <trkpt lat="48.60462" lon="1.98282">
        <ele>101.5</ele>
        <time>2024-06-04T07:43:29Z</time>
      </trkpt>
      <trkpt lat="48.60454" lon="1.98271">
        <ele>101.5</ele>
        <time>2024-06-04T07:43:36Z</time>
      </trkpt>
      <trkpt lat="48.60447" lon="1.98262">
        <ele>101.6</ele>
        <time>2024-06-04T07:43:44Z</time>
      </trkpt>
      <trkpt lat="48.60439" lon="1.98254">
        <ele>101.9</ele>
        <time>2024-06-04T07:43:52Z</time>
      </trkpt>
      <trkpt lat="48.60431" lon="1.98246">
        <ele>102</ele>
        <time>2024-06-04T07:43:59Z</time>
      </trkpt>
      <trkpt lat="48.60423" lon="1.98237">
        <ele>102</ele>
        <time>2024-06-04T07:44:06Z</time>
      </trkpt>
      <trkpt lat="48.60416" lon="1.98228">
        <ele>102</ele>
        <time>2024-06-04T07:44:13Z</time>
      </trkpt>
      <trkpt lat="48.60408" lon="1.98218">
        <ele>102.1</ele>
        <time>2024-06-04T07:44:20Z</time>
      </trkpt>
      <trkpt lat="48.604" lon="1.98208">
        <ele>102.2</ele>
        <time>2024-06-04T07:44:27Z</time>
      </trkpt>
      <trkpt lat="48.60391" lon="1.98199">
        <ele>102.1</ele>
        <time>2024-06-04T07:44:34Z</time>
      </trkpt>
      <trkpt lat="48.60382" lon="1.98192">
        <ele>102.5</ele>
        <time>2024-06-04T07:44:41Z</time>
      </trkpt>
      <trkpt lat="48.60375" lon="1.98184">
        <ele>103.2</ele>
        <time>2024-06-04T07:44:47Z</time>
      </trkpt>
      <trkpt lat="48.60366" lon="1.98176">
        <ele>103.8</ele>
        <time>2024-06-04T07:44:54Z</time>
      </trkpt>
      <trkpt lat="48.60358" lon="1.98167">
        <ele>104.4</ele>
        <time>2024-06-04T07:45:01Z</time>
      </trkpt>
      <trkpt lat="48.6035" lon="1.98159">
        <ele>105.7</ele>
        <time>2024-06-04T07:45:09Z</time>
      </trkpt>
      <trkpt lat="48.60343" lon="1.98149">
        <ele>106.4</ele>
        <time>2024-06-04T07:45:17Z</time>
      </trkpt>
      <trkpt lat="48.60349" lon="1.98137">
        <ele>105.9</ele>
        <time>2024-06-04T07:45:25Z</time>
      </trkpt>
      <trkpt lat="48.60355" lon="1.98125">
        <ele>105.7</ele>
        <time>2024-06-04T07:45:33Z</time>
      </trkpt>
      <trkpt lat="48.60359" lon="1.98112">
        <ele>106</ele>
        <time>2024-06-04T07:45:40Z</time>
      </trkpt>
      <trkpt lat="48.60364" lon="1.981">
        <ele>106.4</ele>
        <time>2024-06-04T07:45:48Z</time>
      </trkpt>
      <trkpt lat="48.60368" lon="1.98087">
        <ele>106.9</ele>
        <time>2024-06-04T07:45:55Z</time>
      </trkpt>
      <trkpt lat="48.60373" lon="1.98075">
        <ele>107.3</ele>
        <time>2024-06-04T07:46:01Z</time>
      </trkpt>
      <trkpt lat="48.60379" lon="1.98064">
        <ele>107.7</ele>
        <time>2024-06-04T07:46:08Z</time>
      </trkpt>
      <trkpt lat="48.60386" lon="1.98052">
        <ele>108.1</ele>
        <time>2024-06-04T07:46:16Z</time>
      </trkpt>
      <trkpt lat="48.60391" lon="1.9804">
        <ele>108.5</ele>
        <time>2024-06-04T07:46:23Z</time>
      </trkpt>
      <trkpt lat="48.60397" lon="1.98029">
        <ele>108.7</ele>
        <time>2024-06-04T07:46:30Z</time>
      </trkpt>
      <trkpt lat="48.60403" lon="1.98016">
        <ele>108.7</ele>
        <time>2024-06-04T07:46:37Z</time>
      </trkpt>
      <trkpt lat="48.60408" lon="1.98004">
        <ele>108.9</ele>
        <time>2024-06-04T07:46:44Z</time>
      </trkpt>
      <trkpt lat="48.60414" lon="1.97992">
        <ele>109.3</ele>
        <time>2024-06-04T07:46:51Z</time>
      </trkpt>
      <trkpt lat="48.6042" lon="1.97981">
        <ele>109.6</ele>
        <time>2024-06-04T07:46:58Z</time>
      </trkpt>
      <trkpt lat="48.60424" lon="1.97967">
        <ele>109.8</ele>
        <time>2024-06-04T07:47:04Z</time>
      </trkpt>
      <trkpt lat="48.60429" lon="1.97955">
        <ele>109.8</ele>
        <time>2024-06-04T07:47:11Z</time>
      </trkpt>
      <trkpt lat="48.60435" lon="1.97943">
        <ele>110</ele>
        <time>2024-06-04T07:47:19Z</time>
      </trkpt>
      <trkpt lat="48.60441" lon="1.97931">
        <ele>110.1</ele>
        <time>2024-06-04T07:47:26Z</time>
      </trkpt>
      <trkpt lat="48.60447" lon="1.97919">
        <ele>109.9</ele>
        <time>2024-06-04T07:47:32Z</time>
      </trkpt>
      <trkpt lat="48.60452" lon="1.97907">
        <ele>110.1</ele>
        <time>2024-06-04T07:47:38Z</time>
      </trkpt>
      <trkpt lat="48.60457" lon="1.97895">
        <ele>110.3</ele>
        <time>2024-06-04T07:47:44Z</time>
      </trkpt>
      <trkpt lat="48.60464" lon="1.97883">
        <ele>110.5</ele>
        <time>2024-06-04T07:47:51Z</time>
      </trkpt>
      <trkpt lat="48.60468" lon="1.9787">
        <ele>110.8</ele>
        <time>2024-06-04T07:47:58Z</time>
      </trkpt>
      <trkpt lat="48.60474" lon="1.97859">
        <ele>111</ele>
        <time>2024-06-04T07:48:05Z</time>
      </trkpt>
      <trkpt lat="48.6048" lon="1.97847">
        <ele>110.7</ele>
        <time>2024-06-04T07:48:13Z</time>
      </trkpt>
      <trkpt lat="48.60485" lon="1.97836">
        <ele>110.5</ele>
        <time>2024-06-04T07:48:21Z</time>
      </trkpt>
      <trkpt lat="48.60492" lon="1.97824">
        <ele>110.6</ele>
        <time>2024-06-04T07:48:27Z</time>
      </trkpt>
      <trkpt lat="48.60497" lon="1.97813">
        <ele>110.8</ele>
        <time>2024-06-04T07:48:35Z</time>
      </trkpt>
      <trkpt lat="48.60503" lon="1.97801">
        <ele>111.1</ele>
        <time>2024-06-04T07:48:42Z</time>
      </trkpt>
      <trkpt lat="48.60507" lon="1.97788">
        <ele>111.4</ele>
        <time>2024-06-04T07:48:49Z</time>
      </trkpt>
      <trkpt lat="48.60512" lon="1.97775">
        <ele>111.6</ele>
        <time>2024-06-04T07:48:57Z</time>
      </trkpt>
      <trkpt lat="48.60517" lon="1.97763">
        <ele>111.4</ele>
        <time>2024-06-04T07:49:03Z</time>
      </trkpt>
      <trkpt lat="48.60523" lon="1.97751">
        <ele>111.2</ele>
        <time>2024-06-04T07:49:10Z</time>
      </trkpt>
      <trkpt lat="48.60527" lon="1.97737">
        <ele>111</ele>
        <time>2024-06-04T07:49:18Z</time>
      </trkpt>
      <trkpt lat="48.60531" lon="1.97724">
        <ele>110.8</ele>
        <time>2024-06-04T07:49:26Z</time>
      </trkpt>
      <trkpt lat="48.60527" lon="1.97711">
        <ele>111</ele>
        <time>2024-06-04T07:49:35Z</time>
      </trkpt>
      <trkpt lat="48.60518" lon="1.97703">
        <ele>111.3</ele>
        <time>2024-06-04T07:49:44Z</time>
      </trkpt>
      <trkpt lat="48.6051" lon="1.97694">
        <ele>111.6</ele>
        <time>2024-06-04T07:49:53Z</time>
      </trkpt>
      <trkpt lat="48.60503" lon="1.97685">
        <ele>111.9</ele>
        <time>2024-06-04T07:50:01Z</time>
      </trkpt>
      <trkpt lat="48.60494" lon="1.97679">
        <ele>112.2</ele>
        <time>2024-06-04T07:50:08Z</time>
      </trkpt>
      <trkpt lat="48.60486" lon="1.9767">
        <ele>112.5</ele>
        <time>2024-06-04T07:50:14Z</time>
      </trkpt>
      <trkpt lat="48.6048" lon="1.9766">
        <ele>112.7</ele>
        <time>2024-06-04T07:50:21Z</time>
      </trkpt>
      <trkpt lat="48.60473" lon="1.9765">
        <ele>113</ele>
        <time>2024-06-04T07:50:28Z</time>
      </trkpt>
      <trkpt lat="48.60465" lon="1.97641">
        <ele>113.5</ele>
        <time>2024-06-04T07:50:36Z</time>
      </trkpt>
      <trkpt lat="48.60455" lon="1.97634">
        <ele>114.2</ele>
        <time>2024-06-04T07:50:43Z</time>
      </trkpt>
      <trkpt lat="48.60446" lon="1.97629">
        <ele>114.9</ele>
        <time>2024-06-04T07:50:50Z</time>
      </trkpt>
      <trkpt lat="48.60439" lon="1.97619">
        <ele>115.3</ele>
        <time>2024-06-04T07:50:58Z</time>
      </trkpt>
      <trkpt lat="48.60429" lon="1.97612">
        <ele>115.6</ele>
        <time>2024-06-04T07:51:06Z</time>
      </trkpt>
      <trkpt lat="48.60421" lon="1.97605">
        <ele>115.8</ele>
        <time>2024-06-04T07:51:13Z</time>
      </trkpt>
      <trkpt lat="48.60413" lon="1.97596">
        <ele>116.3</ele>
        <time>2024-06-04T07:51:20Z</time>
      </trkpt>
      <trkpt lat="48.60404" lon="1.9759">
        <ele>117</ele>
        <time>2024-06-04T07:51:27Z</time>
      </trkpt>
      <trkpt lat="48.60395" lon="1.97582">
        <ele>117.5</ele>
        <time>2024-06-04T07:51:33Z</time>
      </trkpt>
      <trkpt lat="48.60388" lon="1.97572">
        <ele>118.1</ele>
        <time>2024-06-04T07:51:40Z</time>
      </trkpt>
      <trkpt lat="48.60379" lon="1.97565">
        <ele>119</ele>
        <time>2024-06-04T07:51:47Z</time>
      </trkpt>
      <trkpt lat="48.60372" lon="1.97556">
        <ele>119.9</ele>
        <time>2024-06-04T07:51:54Z</time>
      </trkpt>
      <trkpt lat="48.60363" lon="1.97547">
        <ele>120.5</ele>
        <time>2024-06-04T07:52:02Z</time>
      </trkpt>
      <trkpt lat="48.60355" lon="1.9754">
        <ele>121</ele>
        <time>2024-06-04T07:52:10Z</time>
      </trkpt>
      <trkpt lat="48.60347" lon="1.97532">
        <ele>121.2</ele>
        <time>2024-06-04T07:52:17Z</time>
      </trkpt>
      <trkpt lat="48.60343" lon="1.9752">
        <ele>121</ele>
        <time>2024-06-04T07:52:27Z</time>
      </trkpt>
      <trkpt lat="48.6034" lon="1.97506">
        <ele>120.7</ele>
        <time>2024-06-04T07:52:35Z</time>
      </trkpt>
      <trkpt lat="48.60341" lon="1.97491">
        <ele>120.1</ele>
        <time>2024-06-04T07:52:42Z</time>
      </trkpt>
      <trkpt lat="48.6034" lon="1.97477">
        <ele>119.6</ele>
        <time>2024-06-04T07:52:49Z</time>
      </trkpt>
      <trkpt lat="48.60341" lon="1.97462">
        <ele>119.5</ele>
        <time>2024-06-04T07:52:56Z</time>
      </trkpt>
      <trkpt lat="48.60342" lon="1.97447">
        <ele>119.4</ele>
        <time>2024-06-04T07:53:03Z</time>
      </trkpt>
      <trkpt lat="48.60343" lon="1.97431">
        <ele>118.8</ele>
        <time>2024-06-04T07:53:11Z</time>
      </trkpt>
      <trkpt lat="48.60344" lon="1.97417">
        <ele>118.2</ele>
        <time>2024-06-04T07:53:19Z</time>
      </trkpt>
      <trkpt lat="48.60347" lon="1.97403">
        <ele>118</ele>
        <time>2024-06-04T07:53:26Z</time>
      </trkpt>
      <trkpt lat="48.60348" lon="1.97389">
        <ele>118</ele>
        <time>2024-06-04T07:53:33Z</time>
      </trkpt>
      <trkpt lat="48.60348" lon="1.97374">
        <ele>117.9</ele>
        <time>2024-06-04T07:53:41Z</time>
      </trkpt>
      <trkpt lat="48.60346" lon="1.97359">
        <ele>118.1</ele>
        <time>2024-06-04T07:53:48Z</time>
      </trkpt>
      <trkpt lat="48.60345" lon="1.97345">
        <ele>118.1</ele>
        <time>2024-06-04T07:53:54Z</time>
      </trkpt>
      <trkpt lat="48.60344" lon="1.9733">
        <ele>118.2</ele>
        <time>2024-06-04T07:54:01Z</time>
      </trkpt>
      <trkpt lat="48.60341" lon="1.97316">
        <ele>118.4</ele>
        <time>2024-06-04T07:54:09Z</time>
      </trkpt>
      <trkpt lat="48.60338" lon="1.97304">
        <ele>118.7</ele>
        <time>2024-06-04T07:54:16Z</time>
      </trkpt>
      <trkpt lat="48.60336" lon="1.9729">
        <ele>118.8</ele>
        <time>2024-06-04T07:54:23Z</time>
      </trkpt>
      <trkpt lat="48.60336" lon="1.97275">
        <ele>118.8</ele>
        <time>2024-06-04T07:54:32Z</time>
      </trkpt>
      <trkpt lat="48.6033" lon="1.97263">
        <ele>119.2</ele>
        <time>2024-06-04T07:54:40Z</time>
      </trkpt>
      <trkpt lat="48.60334" lon="1.97276">
        <ele>118.9</ele>
        <time>2024-06-04T07:54:53Z</time>
      </trkpt>
      <trkpt lat="48.60344" lon="1.97282">
        <ele>118.3</ele>
        <time>2024-06-04T07:55:01Z</time>
      </trkpt>
      <trkpt lat="48.60352" lon="1.97288">
        <ele>117.7</ele>
        <time>2024-06-04T07:55:08Z</time>
      </trkpt>
      <trkpt lat="48.6036" lon="1.97295">
        <ele>117.1</ele>
        <time>2024-06-04T07:55:15Z</time>
      </trkpt>
      <trkpt lat="48.60369" lon="1.97301">
        <ele>116.5</ele>
        <time>2024-06-04T07:55:21Z</time>
      </trkpt>
      <trkpt lat="48.60376" lon="1.9731">
        <ele>115.9</ele>
        <time>2024-06-04T07:55:27Z</time>
      </trkpt>
      <trkpt lat="48.60383" lon="1.97321">
        <ele>115.4</ele>
        <time>2024-06-04T07:55:34Z</time>
      </trkpt>
      <trkpt lat="48.60391" lon="1.97329">
        <ele>114.9</ele>
        <time>2024-06-04T07:55:40Z</time>
      </trkpt>
      <trkpt lat="48.604" lon="1.97337">
        <ele>114.6</ele>
        <time>2024-06-04T07:55:47Z</time>
      </trkpt>
      <trkpt lat="48.60408" lon="1.97345">
        <ele>114.3</ele>
        <time>2024-06-04T07:55:53Z</time>
      </trkpt>
      <trkpt lat="48.60415" lon="1.97355">
        <ele>114</ele>
        <time>2024-06-04T07:56:00Z</time>
      </trkpt>
      <trkpt lat="48.60424" lon="1.97361">
        <ele>114</ele>
        <time>2024-06-04T07:56:08Z</time>
      </trkpt>
      <trkpt lat="48.6043" lon="1.97373">
        <ele>114</ele>
        <time>2024-06-04T07:56:16Z</time>
      </trkpt>
      <trkpt lat="48.60436" lon="1.97383">
        <ele>114</ele>
        <time>2024-06-04T07:56:23Z</time>
      </trkpt>
      <trkpt lat="48.60443" lon="1.97393">
        <ele>114</ele>
        <time>2024-06-04T07:56:31Z</time>
      </trkpt>
      <trkpt lat="48.60451" lon="1.974">
        <ele>113.8</ele>
        <time>2024-06-04T07:56:38Z</time>
      </trkpt>
      <trkpt lat="48.60456" lon="1.97412">
        <ele>113.6</ele>
        <time>2024-06-04T07:56:45Z</time>
      </trkpt>
      <trkpt lat="48.60463" lon="1.97422">
        <ele>113.3</ele>
        <time>2024-06-04T07:56:52Z</time>
      </trkpt>
      <trkpt lat="48.6047" lon="1.97431">
        <ele>113.1</ele>
        <time>2024-06-04T07:56:58Z</time>
      </trkpt>
      <trkpt lat="48.60479" lon="1.97434">
        <ele>112.7</ele>
        <time>2024-06-04T07:57:04Z</time>
      </trkpt>
      <trkpt lat="48.60488" lon="1.97438">
        <ele>112.4</ele>
        <time>2024-06-04T07:57:11Z</time>
      </trkpt>
      <trkpt lat="48.60497" lon="1.97442">
        <ele>112.1</ele>
        <time>2024-06-04T07:57:17Z</time>
      </trkpt>
      <trkpt lat="48.60506" lon="1.97445">
        <ele>111.8</ele>
        <time>2024-06-04T07:57:23Z</time>
      </trkpt>
      <trkpt lat="48.60515" lon="1.9745">
        <ele>111.5</ele>
        <time>2024-06-04T07:57:30Z</time>
      </trkpt>
      <trkpt lat="48.60523" lon="1.97455">
        <ele>111.2</ele>
        <time>2024-06-04T07:57:37Z</time>
      </trkpt>
      <trkpt lat="48.6053" lon="1.97465">
        <ele>110.9</ele>
        <time>2024-06-04T07:57:44Z</time>
      </trkpt>
      <trkpt lat="48.60538" lon="1.97473">
        <ele>110.6</ele>
        <time>2024-06-04T07:57:51Z</time>
      </trkpt>
      <trkpt lat="48.60544" lon="1.97485">
        <ele>110.2</ele>
        <time>2024-06-04T07:57:58Z</time>
      </trkpt>
      <trkpt lat="48.60552" lon="1.97493">
        <ele>110</ele>
        <time>2024-06-04T07:58:04Z</time>
      </trkpt>
      <trkpt lat="48.6056" lon="1.97502">
        <ele>109.9</ele>
        <time>2024-06-04T07:58:12Z</time>
      </trkpt>
      <trkpt lat="48.60568" lon="1.9751">
        <ele>109.6</ele>
        <time>2024-06-04T07:58:20Z</time>
      </trkpt>
      <trkpt lat="48.60576" lon="1.97517">
        <ele>109.4</ele>
        <time>2024-06-04T07:58:26Z</time>
      </trkpt>
      <trkpt lat="48.60584" lon="1.97526">
        <ele>109.1</ele>
        <time>2024-06-04T07:58:33Z</time>
      </trkpt>
      <trkpt lat="48.60588" lon="1.97539">
        <ele>108.9</ele>
        <time>2024-06-04T07:58:43Z</time>
      </trkpt>
      <trkpt lat="48.60582" lon="1.9755">
        <ele>109</ele>
        <time>2024-06-04T07:58:50Z</time>
      </trkpt>
      <trkpt lat="48.6059" lon="1.9754">
        <ele>108.9</ele>
        <time>2024-06-04T07:59:13Z</time>
      </trkpt>
      <trkpt lat="48.606" lon="1.97539">
        <ele>108.8</ele>
        <time>2024-06-04T07:59:21Z</time>
      </trkpt>
      <trkpt lat="48.60609" lon="1.97537">
        <ele>108.7</ele>
        <time>2024-06-04T07:59:28Z</time>
      </trkpt>
      <trkpt lat="48.60618" lon="1.97533">
        <ele>108.6</ele>
        <time>2024-06-04T07:59:35Z</time>
      </trkpt>
      <trkpt lat="48.60627" lon="1.97534">
        <ele>108.2</ele>
        <time>2024-06-04T07:59:42Z</time>
      </trkpt>
      <trkpt lat="48.60637" lon="1.97535">
        <ele>107.8</ele>
        <time>2024-06-04T07:59:50Z</time>
      </trkpt>
      <trkpt lat="48.60645" lon="1.97529">
        <ele>107.7</ele>
        <time>2024-06-04T07:59:57Z</time>
      </trkpt>
      <trkpt lat="48.60655" lon="1.97523">
        <ele>107.4</ele>
        <time>2024-06-04T08:00:04Z</time>
      </trkpt>
      <trkpt lat="48.60663" lon="1.97516">
        <ele>107.1</ele>
        <time>2024-06-04T08:00:10Z</time>
      </trkpt>
      <trkpt lat="48.6067" lon="1.97508">
        <ele>106.9</ele>
        <time>2024-06-04T08:00:18Z</time>
      </trkpt>
      <trkpt lat="48.60676" lon="1.97497">
        <ele>106.7</ele>
        <time>2024-06-04T08:00:25Z</time>
      </trkpt>
      <trkpt lat="48.60681" lon="1.97485">
        <ele>106.5</ele>
        <time>2024-06-04T08:00:32Z</time>
      </trkpt>
      <trkpt lat="48.60683" lon="1.9747">
        <ele>106.4</ele>
        <time>2024-06-04T08:00:41Z</time>
      </trkpt>
      <trkpt lat="48.6069" lon="1.97479">
        <ele>106.1</ele>
        <time>2024-06-04T08:03:01Z</time>
      </trkpt>
      <trkpt lat="48.607" lon="1.97478">
        <ele>106</ele>
        <time>2024-06-04T08:03:53Z</time>
      </trkpt>
      <trkpt lat="48.60709" lon="1.97475">
        <ele>106</ele>
        <time>2024-06-04T08:04:35Z</time>
      </trkpt>
      <trkpt lat="48.60719" lon="1.97471">
        <ele>106</ele>
        <time>2024-06-04T08:04:42Z</time>
      </trkpt>
      <trkpt lat="48.60728" lon="1.97467">
        <ele>105.8</ele>
        <time>2024-06-04T08:04:50Z</time>
      </trkpt>
      <trkpt lat="48.60736" lon="1.9746">
        <ele>105.5</ele>
        <time>2024-06-04T08:04:57Z</time>
      </trkpt>
      <trkpt lat="48.60745" lon="1.97453">
        <ele>105.2</ele>
        <time>2024-06-04T08:05:05Z</time>
      </trkpt>
      <trkpt lat="48.60754" lon="1.97446">
        <ele>105</ele>
        <time>2024-06-04T08:05:13Z</time>
      </trkpt>
      <trkpt lat="48.6075" lon="1.97433">
        <ele>105</ele>
        <time>2024-06-04T08:05:22Z</time>
      </trkpt>
      <trkpt lat="48.60744" lon="1.9742">
        <ele>105.2</ele>
        <time>2024-06-04T08:05:31Z</time>
      </trkpt>
      <trkpt lat="48.60735" lon="1.97413">
        <ele>105.5</ele>
        <time>2024-06-04T08:05:40Z</time>
      </trkpt>
      <trkpt lat="48.60728" lon="1.97404">
        <ele>105.8</ele>
        <time>2024-06-04T08:05:47Z</time>
      </trkpt>
      <trkpt lat="48.60727" lon="1.97389">
        <ele>105.8</ele>
        <time>2024-06-04T08:05:56Z</time>
      </trkpt>
      <trkpt lat="48.60724" lon="1.97374">
        <ele>105.9</ele>
        <time>2024-06-04T08:06:05Z</time>
      </trkpt>
      <trkpt lat="48.60722" lon="1.97361">
        <ele>106</ele>
        <time>2024-06-04T08:06:12Z</time>
      </trkpt>
      <trkpt lat="48.60715" lon="1.9735">
        <ele>106.7</ele>
        <time>2024-06-04T08:06:19Z</time>
      </trkpt>
      <trkpt lat="48.60712" lon="1.97335">
        <ele>107.3</ele>
        <time>2024-06-04T08:06:26Z</time>
      </trkpt>
      <trkpt lat="48.60708" lon="1.97323">
        <ele>107.5</ele>
        <time>2024-06-04T08:06:33Z</time>
      </trkpt>
      <trkpt lat="48.60701" lon="1.97312">
        <ele>107.8</ele>
        <time>2024-06-04T08:06:40Z</time>
      </trkpt>
      <trkpt lat="48.607" lon="1.97299">
        <ele>107.8</ele>
        <time>2024-06-04T08:06:46Z</time>
      </trkpt>
      <trkpt lat="48.60697" lon="1.97284">
        <ele>107.9</ele>
        <time>2024-06-04T08:06:53Z</time>
      </trkpt>
      <trkpt lat="48.60695" lon="1.97271">
        <ele>108.3</ele>
        <time>2024-06-04T08:07:00Z</time>
      </trkpt>
      <trkpt lat="48.60689" lon="1.97258">
        <ele>108.8</ele>
        <time>2024-06-04T08:07:08Z</time>
      </trkpt>
      <trkpt lat="48.60688" lon="1.97244">
        <ele>109.1</ele>
        <time>2024-06-04T08:07:16Z</time>
      </trkpt>
      <trkpt lat="48.60694" lon="1.97232">
        <ele>109</ele>
        <time>2024-06-04T08:07:23Z</time>
      </trkpt>
      <trkpt lat="48.60698" lon="1.97219">
        <ele>108.9</ele>
        <time>2024-06-04T08:07:30Z</time>
      </trkpt>
      <trkpt lat="48.60702" lon="1.97206">
        <ele>108.7</ele>
        <time>2024-06-04T08:07:37Z</time>
      </trkpt>
      <trkpt lat="48.60705" lon="1.97193">
        <ele>108.6</ele>
        <time>2024-06-04T08:07:44Z</time>
      </trkpt>
      <trkpt lat="48.60706" lon="1.97178">
        <ele>108.6</ele>
        <time>2024-06-04T08:07:52Z</time>
      </trkpt>
      <trkpt lat="48.60704" lon="1.97165">
        <ele>108.7</ele>
        <time>2024-06-04T08:08:00Z</time>
      </trkpt>
      <trkpt lat="48.60701" lon="1.9715">
        <ele>109.3</ele>
        <time>2024-06-04T08:08:10Z</time>
      </trkpt>
      <trkpt lat="48.60702" lon="1.97135">
        <ele>109.7</ele>
        <time>2024-06-04T08:08:19Z</time>
      </trkpt>
      <trkpt lat="48.60702" lon="1.97121">
        <ele>109.7</ele>
        <time>2024-06-04T08:08:28Z</time>
      </trkpt>
      <trkpt lat="48.607" lon="1.97108">
        <ele>109.9</ele>
        <time>2024-06-04T08:10:22Z</time>
      </trkpt>
      <trkpt lat="48.60693" lon="1.97096">
        <ele>110.6</ele>
        <time>2024-06-04T08:16:28Z</time>
      </trkpt>
      <trkpt lat="48.60685" lon="1.97089">
        <ele>111.5</ele>
        <time>2024-06-04T08:16:35Z</time>
      </trkpt>
      <trkpt lat="48.6068" lon="1.97075">
        <ele>112.2</ele>
        <time>2024-06-04T08:16:43Z</time>
      </trkpt>
      <trkpt lat="48.60677" lon="1.97062">
        <ele>112.6</ele>
        <time>2024-06-04T08:16:51Z</time>
      </trkpt>
      <trkpt lat="48.6067" lon="1.97052">
        <ele>113</ele>
        <time>2024-06-04T08:17:00Z</time>
      </trkpt>
      <trkpt lat="48.60661" lon="1.97047">
        <ele>113.7</ele>
        <time>2024-06-04T08:17:06Z</time>
      </trkpt>
      <trkpt lat="48.60657" lon="1.97034">
        <ele>114.2</ele>
        <time>2024-06-04T08:17:14Z</time>
      </trkpt>
      <trkpt lat="48.60656" lon="1.9702">
        <ele>114.5</ele>
        <time>2024-06-04T08:17:20Z</time>
      </trkpt>
      <trkpt lat="48.60655" lon="1.97005">
        <ele>114.8</ele>
        <time>2024-06-04T08:17:27Z</time>
      </trkpt>
      <trkpt lat="48.60656" lon="1.96992">
        <ele>114.9</ele>
        <time>2024-06-04T08:17:34Z</time>
      </trkpt>
      <trkpt lat="48.6066" lon="1.96978">
        <ele>115.1</ele>
        <time>2024-06-04T08:17:42Z</time>
      </trkpt>
      <trkpt lat="48.60665" lon="1.96965">
        <ele>115.1</ele>
        <time>2024-06-04T08:17:49Z</time>
      </trkpt>
      <trkpt lat="48.60669" lon="1.96953">
        <ele>114.8</ele>
        <time>2024-06-04T08:17:55Z</time>
      </trkpt>
      <trkpt lat="48.60674" lon="1.9694">
        <ele>114.5</ele>
        <time>2024-06-04T08:18:02Z</time>
      </trkpt>
      <trkpt lat="48.60679" lon="1.96928">
        <ele>114.4</ele>
        <time>2024-06-04T08:18:08Z</time>
      </trkpt>
      <trkpt lat="48.60685" lon="1.96915">
        <ele>114.4</ele>
        <time>2024-06-04T08:18:15Z</time>
      </trkpt>
      <trkpt lat="48.60689" lon="1.96901">
        <ele>114.2</ele>
        <time>2024-06-04T08:18:22Z</time>
      </trkpt>
      <trkpt lat="48.60692" lon="1.96887">
        <ele>114.1</ele>
        <time>2024-06-04T08:18:29Z</time>
      </trkpt>
      <trkpt lat="48.60694" lon="1.96873">
        <ele>114</ele>
        <time>2024-06-04T08:18:36Z</time>
      </trkpt>
      <trkpt lat="48.60696" lon="1.96858">
        <ele>114</ele>
        <time>2024-06-04T08:18:44Z</time>
      </trkpt>
      <trkpt lat="48.60697" lon="1.96843">
        <ele>113.9</ele>
        <time>2024-06-04T08:18:52Z</time>
      </trkpt>
      <trkpt lat="48.607" lon="1.9683">
        <ele>113.9</ele>
        <time>2024-06-04T08:18:59Z</time>
      </trkpt>
      <trkpt lat="48.60703" lon="1.96816">
        <ele>114.3</ele>
        <time>2024-06-04T08:19:06Z</time>
      </trkpt>
      <trkpt lat="48.60705" lon="1.96803">
        <ele>114.6</ele>
        <time>2024-06-04T08:19:13Z</time>
      </trkpt>
      <trkpt lat="48.60708" lon="1.96788">
        <ele>114.5</ele>
        <time>2024-06-04T08:19:20Z</time>
      </trkpt>
      <trkpt lat="48.60703" lon="1.96776">
        <ele>114.7</ele>
        <time>2024-06-04T08:19:30Z</time>
      </trkpt>
      <trkpt lat="48.60694" lon="1.96772">
        <ele>115</ele>
        <time>2024-06-04T08:19:37Z</time>
      </trkpt>
      <trkpt lat="48.60686" lon="1.96764">
        <ele>115.6</ele>
        <time>2024-06-04T08:19:44Z</time>
      </trkpt>
      <trkpt lat="48.60677" lon="1.96757">
        <ele>116.3</ele>
        <time>2024-06-04T08:19:51Z</time>
      </trkpt>
      <trkpt lat="48.60668" lon="1.96748">
        <ele>116.9</ele>
        <time>2024-06-04T08:19:57Z</time>
      </trkpt>
      <trkpt lat="48.60661" lon="1.96739">
        <ele>117.3</ele>
        <time>2024-06-04T08:20:05Z</time>
      </trkpt>
      <trkpt lat="48.60654" lon="1.9673">
        <ele>117.8</ele>
        <time>2024-06-04T08:20:13Z</time>
      </trkpt>
      <trkpt lat="48.60645" lon="1.96722">
        <ele>118.6</ele>
        <time>2024-06-04T08:20:21Z</time>
      </trkpt>
      <trkpt lat="48.60637" lon="1.96713">
        <ele>119.1</ele>
        <time>2024-06-04T08:20:28Z</time>
      </trkpt>
      <trkpt lat="48.60628" lon="1.96709">
        <ele>119.8</ele>
        <time>2024-06-04T08:20:35Z</time>
      </trkpt>
      <trkpt lat="48.60621" lon="1.967">
        <ele>120.3</ele>
        <time>2024-06-04T08:20:42Z</time>
      </trkpt>
      <trkpt lat="48.60613" lon="1.96693">
        <ele>120.9</ele>
        <time>2024-06-04T08:20:49Z</time>
      </trkpt>
      <trkpt lat="48.60605" lon="1.96684">
        <ele>121.4</ele>
        <time>2024-06-04T08:20:55Z</time>
      </trkpt>
      <trkpt lat="48.60598" lon="1.96674">
        <ele>121.9</ele>
        <time>2024-06-04T08:21:02Z</time>
      </trkpt>
      <trkpt lat="48.6059" lon="1.96667">
        <ele>122.5</ele>
        <time>2024-06-04T08:21:11Z</time>
      </trkpt>
      <trkpt lat="48.60582" lon="1.9666">
        <ele>123.4</ele>
        <time>2024-06-04T08:21:19Z</time>
      </trkpt>
      <trkpt lat="48.60575" lon="1.96651">
        <ele>124.5</ele>
        <time>2024-06-04T08:21:26Z</time>
      </trkpt>
      <trkpt lat="48.60567" lon="1.96644">
        <ele>125.6</ele>
        <time>2024-06-04T08:21:33Z</time>
      </trkpt>
      <trkpt lat="48.6056" lon="1.96634">
        <ele>126.7</ele>
        <time>2024-06-04T08:21:41Z</time>
      </trkpt>
      <trkpt lat="48.60553" lon="1.96624">
        <ele>128</ele>
        <time>2024-06-04T08:21:50Z</time>
      </trkpt>
      <trkpt lat="48.60544" lon="1.96618">
        <ele>129.7</ele>
        <time>2024-06-04T08:21:58Z</time>
      </trkpt>
      <trkpt lat="48.60536" lon="1.96612">
        <ele>131.5</ele>
        <time>2024-06-04T08:22:15Z</time>
      </trkpt>
      <trkpt lat="48.60527" lon="1.96603">
        <ele>133.3</ele>
        <time>2024-06-04T08:22:20Z</time>
      </trkpt>
      <trkpt lat="48.60519" lon="1.96596">
        <ele>134.7</ele>
        <time>2024-06-04T08:22:27Z</time>
      </trkpt>
      <trkpt lat="48.60513" lon="1.96583">
        <ele>136.1</ele>
        <time>2024-06-04T08:22:35Z</time>
      </trkpt>
      <trkpt lat="48.60505" lon="1.96577">
        <ele>137.3</ele>
        <time>2024-06-04T08:22:41Z</time>
      </trkpt>
      <trkpt lat="48.60497" lon="1.96583">
        <ele>138.2</ele>
        <time>2024-06-04T08:22:49Z</time>
      </trkpt>
      <trkpt lat="48.60491" lon="1.96594">
        <ele>138</ele>
        <time>2024-06-04T08:23:02Z</time>
      </trkpt>
      <trkpt lat="48.60484" lon="1.96604">
        <ele>138.1</ele>
        <time>2024-06-04T08:23:11Z</time>
      </trkpt>
      <trkpt lat="48.60476" lon="1.96614">
        <ele>138.4</ele>
        <time>2024-06-04T08:23:19Z</time>
      </trkpt>
      <trkpt lat="48.60473" lon="1.96628">
        <ele>138.4</ele>
        <time>2024-06-04T08:23:27Z</time>
      </trkpt>
      <trkpt lat="48.60469" lon="1.96641">
        <ele>138.4</ele>
        <time>2024-06-04T08:23:35Z</time>
      </trkpt>
      <trkpt lat="48.60463" lon="1.96654">
        <ele>138.9</ele>
        <time>2024-06-04T08:23:43Z</time>
      </trkpt>
      <trkpt lat="48.60458" lon="1.96666">
        <ele>139</ele>
        <time>2024-06-04T08:23:50Z</time>
      </trkpt>
      <trkpt lat="48.60452" lon="1.96678">
        <ele>139.7</ele>
        <time>2024-06-04T08:23:58Z</time>
      </trkpt>
      <trkpt lat="48.60447" lon="1.96691">
        <ele>140.6</ele>
        <time>2024-06-04T08:24:06Z</time>
      </trkpt>
      <trkpt lat="48.60442" lon="1.96702">
        <ele>141.1</ele>
        <time>2024-06-04T08:24:14Z</time>
      </trkpt>
      <trkpt lat="48.60437" lon="1.96715">
        <ele>141.5</ele>
        <time>2024-06-04T08:24:21Z</time>
      </trkpt>
      <trkpt lat="48.60432" lon="1.96728">
        <ele>141.9</ele>
        <time>2024-06-04T08:24:28Z</time>
      </trkpt>
      <trkpt lat="48.60424" lon="1.96737">
        <ele>142.4</ele>
        <time>2024-06-04T08:24:35Z</time>
      </trkpt>
      <trkpt lat="48.6042" lon="1.96749">
        <ele>142.8</ele>
        <time>2024-06-04T08:24:42Z</time>
      </trkpt>
      <trkpt lat="48.60414" lon="1.96763">
        <ele>143</ele>
        <time>2024-06-04T08:24:49Z</time>
      </trkpt>
      <trkpt lat="48.60408" lon="1.96776">
        <ele>142.7</ele>
        <time>2024-06-04T08:24:56Z</time>
      </trkpt>
      <trkpt lat="48.60401" lon="1.96787">
        <ele>142.3</ele>
        <time>2024-06-04T08:25:03Z</time>
      </trkpt>
      <trkpt lat="48.60393" lon="1.96781">
        <ele>142.1</ele>
        <time>2024-06-04T08:25:10Z</time>
      </trkpt>
      <trkpt lat="48.60384" lon="1.96777">
        <ele>141.8</ele>
        <time>2024-06-04T08:25:17Z</time>
      </trkpt>
      <trkpt lat="48.60377" lon="1.96765">
        <ele>142</ele>
        <time>2024-06-04T08:25:24Z</time>
      </trkpt>
      <trkpt lat="48.60371" lon="1.96753">
        <ele>142.2</ele>
        <time>2024-06-04T08:25:31Z</time>
      </trkpt>
      <trkpt lat="48.60364" lon="1.96741">
        <ele>142.1</ele>
        <time>2024-06-04T08:25:38Z</time>
      </trkpt>
      <trkpt lat="48.60356" lon="1.96733">
        <ele>141.6</ele>
        <time>2024-06-04T08:25:45Z</time>
      </trkpt>
      <trkpt lat="48.60348" lon="1.96727">
        <ele>141</ele>
        <time>2024-06-04T08:25:50Z</time>
      </trkpt>
      <trkpt lat="48.60338" lon="1.96729">
        <ele>140.2</ele>
        <time>2024-06-04T08:25:57Z</time>
      </trkpt>
      <trkpt lat="48.6033" lon="1.96722">
        <ele>139.5</ele>
        <time>2024-06-04T08:26:03Z</time>
      </trkpt>
      <trkpt lat="48.60322" lon="1.96715">
        <ele>138.1</ele>
        <time>2024-06-04T08:26:11Z</time>
      </trkpt>
      <trkpt lat="48.60322" lon="1.967">
        <ele>138.3</ele>
        <time>2024-06-04T08:26:19Z</time>
      </trkpt>
      <trkpt lat="48.60318" lon="1.96688">
        <ele>138</ele>
        <time>2024-06-04T08:26:25Z</time>
      </trkpt>
      <trkpt lat="48.60313" lon="1.96676">
        <ele>137.8</ele>
        <time>2024-06-04T08:26:31Z</time>
      </trkpt>
      <trkpt lat="48.60308" lon="1.96662">
        <ele>137.5</ele>
        <time>2024-06-04T08:26:39Z</time>
      </trkpt>
      <trkpt lat="48.60301" lon="1.96651">
        <ele>137</ele>
        <time>2024-06-04T08:26:46Z</time>
      </trkpt>
      <trkpt lat="48.603" lon="1.96638">
        <ele>137.2</ele>
        <time>2024-06-04T08:26:53Z</time>
      </trkpt>
      <trkpt lat="48.60299" lon="1.96622">
        <ele>137.7</ele>
        <time>2024-06-04T08:27:01Z</time>
      </trkpt>
      <trkpt lat="48.60299" lon="1.96608">
        <ele>138.1</ele>
        <time>2024-06-04T08:27:09Z</time>
      </trkpt>
      <trkpt lat="48.60299" lon="1.96592">
        <ele>138.1</ele>
        <time>2024-06-04T08:27:17Z</time>
      </trkpt>
      <trkpt lat="48.60299" lon="1.96578">
        <ele>138.2</ele>
        <time>2024-06-04T08:27:24Z</time>
      </trkpt>
      <trkpt lat="48.60297" lon="1.96564">
        <ele>138.5</ele>
        <time>2024-06-04T08:27:30Z</time>
      </trkpt>
      <trkpt lat="48.60298" lon="1.9655">
        <ele>138.9</ele>
        <time>2024-06-04T08:27:36Z</time>
      </trkpt>
      <trkpt lat="48.60295" lon="1.96535">
        <ele>138.8</ele>
        <time>2024-06-04T08:27:43Z</time>
      </trkpt>
      <trkpt lat="48.60295" lon="1.9652">
        <ele>139</ele>
        <time>2024-06-04T08:27:51Z</time>
      </trkpt>
      <trkpt lat="48.60295" lon="1.96504">
        <ele>139.3</ele>
        <time>2024-06-04T08:27:58Z</time>
      </trkpt>
      <trkpt lat="48.60292" lon="1.96489">
        <ele>139.2</ele>
        <time>2024-06-04T08:28:04Z</time>
      </trkpt>
      <trkpt lat="48.60288" lon="1.96475">
        <ele>139</ele>
        <time>2024-06-04T08:28:10Z</time>
      </trkpt>
      <trkpt lat="48.6028" lon="1.96465">
        <ele>138.3</ele>
        <time>2024-06-04T08:28:17Z</time>
      </trkpt>
      <trkpt lat="48.60273" lon="1.96455">
        <ele>137.6</ele>
        <time>2024-06-04T08:28:24Z</time>
      </trkpt>
      <trkpt lat="48.60273" lon="1.96442">
        <ele>137.7</ele>
        <time>2024-06-04T08:28:31Z</time>
      </trkpt>
      <trkpt lat="48.60276" lon="1.96428">
        <ele>137.9</ele>
        <time>2024-06-04T08:28:41Z</time>
      </trkpt>
      <trkpt lat="48.6028" lon="1.96415">
        <ele>138.3</ele>
        <time>2024-06-04T08:28:49Z</time>
      </trkpt>
      <trkpt lat="48.60285" lon="1.96402">
        <ele>138.6</ele>
        <time>2024-06-04T08:28:56Z</time>
      </trkpt>
      <trkpt lat="48.60292" lon="1.96394">
        <ele>139.1</ele>
        <time>2024-06-04T08:29:05Z</time>
      </trkpt>
      <trkpt lat="48.60294" lon="1.9638">
        <ele>139.2</ele>
        <time>2024-06-04T08:29:14Z</time>
      </trkpt>
      <trkpt lat="48.60306" lon="1.96379">
        <ele>140</ele>
        <time>2024-06-04T08:30:20Z</time>
      </trkpt>
      <trkpt lat="48.60296" lon="1.96377">
        <ele>139.3</ele>
        <time>2024-06-04T08:31:18Z</time>
      </trkpt>
      <trkpt lat="48.60288" lon="1.96367">
        <ele>138.7</ele>
        <time>2024-06-04T08:31:26Z</time>
      </trkpt>
      <trkpt lat="48.60279" lon="1.96358">
        <ele>138.2</ele>
        <time>2024-06-04T08:31:32Z</time>
      </trkpt>
      <trkpt lat="48.60271" lon="1.9635">
        <ele>138.4</ele>
        <time>2024-06-04T08:31:38Z</time>
      </trkpt>
      <trkpt lat="48.60263" lon="1.96341">
        <ele>138.7</ele>
        <time>2024-06-04T08:31:45Z</time>
      </trkpt>
      <trkpt lat="48.60256" lon="1.9633">
        <ele>139.1</ele>
        <time>2024-06-04T08:31:53Z</time>
      </trkpt>
      <trkpt lat="48.60249" lon="1.96321">
        <ele>139.4</ele>
        <time>2024-06-04T08:32:00Z</time>
      </trkpt>
      <trkpt lat="48.60242" lon="1.96311">
        <ele>139.8</ele>
        <time>2024-06-04T08:32:06Z</time>
      </trkpt>
      <trkpt lat="48.60233" lon="1.96304">
        <ele>140</ele>
        <time>2024-06-04T08:32:13Z</time>
      </trkpt>
      <trkpt lat="48.60224" lon="1.96296">
        <ele>140</ele>
        <time>2024-06-04T08:32:20Z</time>
      </trkpt>
      <trkpt lat="48.60216" lon="1.96288">
        <ele>139.4</ele>
        <time>2024-06-04T08:32:27Z</time>
      </trkpt>
      <trkpt lat="48.60209" lon="1.9628">
        <ele>138.6</ele>
        <time>2024-06-04T08:32:34Z</time>
      </trkpt>
      <trkpt lat="48.60201" lon="1.96273">
        <ele>137.8</ele>
        <time>2024-06-04T08:32:41Z</time>
      </trkpt>
      <trkpt lat="48.60193" lon="1.96267">
        <ele>137.3</ele>
        <time>2024-06-04T08:32:48Z</time>
      </trkpt>
      <trkpt lat="48.60185" lon="1.96259">
        <ele>136.6</ele>
        <time>2024-06-04T08:32:55Z</time>
      </trkpt>
      <trkpt lat="48.60178" lon="1.9625">
        <ele>135.6</ele>
        <time>2024-06-04T08:33:04Z</time>
      </trkpt>
      <trkpt lat="48.6017" lon="1.96243">
        <ele>133.9</ele>
        <time>2024-06-04T08:33:11Z</time>
      </trkpt>
      <trkpt lat="48.60161" lon="1.96234">
        <ele>132.5</ele>
        <time>2024-06-04T08:33:19Z</time>
      </trkpt>
      <trkpt lat="48.60153" lon="1.96226">
        <ele>131.3</ele>
        <time>2024-06-04T08:33:25Z</time>
      </trkpt>
      <trkpt lat="48.60146" lon="1.96216">
        <ele>130.2</ele>
        <time>2024-06-04T08:33:33Z</time>
      </trkpt>
      <trkpt lat="48.60148" lon="1.96202">
        <ele>129.7</ele>
        <time>2024-06-04T08:33:42Z</time>
      </trkpt>
      <trkpt lat="48.60151" lon="1.96188">
        <ele>129.3</ele>
        <time>2024-06-04T08:33:49Z</time>
      </trkpt>
      <trkpt lat="48.60154" lon="1.96175">
        <ele>129.2</ele>
        <time>2024-06-04T08:33:57Z</time>
      </trkpt>
      <trkpt lat="48.60155" lon="1.96161">
        <ele>128.8</ele>
        <time>2024-06-04T08:34:07Z</time>
      </trkpt>
      <trkpt lat="48.60154" lon="1.96146">
        <ele>128.3</ele>
        <time>2024-06-04T08:34:14Z</time>
      </trkpt>
      <trkpt lat="48.60155" lon="1.96131">
        <ele>127.8</ele>
        <time>2024-06-04T08:34:22Z</time>
      </trkpt>
      <trkpt lat="48.60151" lon="1.96117">
        <ele>127.1</ele>
        <time>2024-06-04T08:34:27Z</time>
      </trkpt>
      <trkpt lat="48.60149" lon="1.96103">
        <ele>126.4</ele>
        <time>2024-06-04T08:34:33Z</time>
      </trkpt>
      <trkpt lat="48.60145" lon="1.96089">
        <ele>125.7</ele>
        <time>2024-06-04T08:34:40Z</time>
      </trkpt>
      <trkpt lat="48.60143" lon="1.96076">
        <ele>124.8</ele>
        <time>2024-06-04T08:34:48Z</time>
      </trkpt>
      <trkpt lat="48.60143" lon="1.9606">
        <ele>123.8</ele>
        <time>2024-06-04T08:34:55Z</time>
      </trkpt>
      <trkpt lat="48.60145" lon="1.96046">
        <ele>123.3</ele>
        <time>2024-06-04T08:35:02Z</time>
      </trkpt>
      <trkpt lat="48.60149" lon="1.96034">
        <ele>123.3</ele>
        <time>2024-06-04T08:35:09Z</time>
      </trkpt>
      <trkpt lat="48.60156" lon="1.96023">
        <ele>123.7</ele>
        <time>2024-06-04T08:35:17Z</time>
      </trkpt>
      <trkpt lat="48.60161" lon="1.96012">
        <ele>123.8</ele>
        <time>2024-06-04T08:35:24Z</time>
      </trkpt>
      <trkpt lat="48.60169" lon="1.96004">
        <ele>124.4</ele>
        <time>2024-06-04T08:35:32Z</time>
      </trkpt>
      <trkpt lat="48.60177" lon="1.95997">
        <ele>124.7</ele>
        <time>2024-06-04T08:35:40Z</time>
      </trkpt>
      <trkpt lat="48.60182" lon="1.95983">
        <ele>123.5</ele>
        <time>2024-06-04T08:35:47Z</time>
      </trkpt>
      <trkpt lat="48.60187" lon="1.95972">
        <ele>122.4</ele>
        <time>2024-06-04T08:35:54Z</time>
      </trkpt>
      <trkpt lat="48.60191" lon="1.95959">
        <ele>121.8</ele>
        <time>2024-06-04T08:36:01Z</time>
      </trkpt>
      <trkpt lat="48.60196" lon="1.95946">
        <ele>121.1</ele>
        <time>2024-06-04T08:36:09Z</time>
      </trkpt>
      <trkpt lat="48.60203" lon="1.95935">
        <ele>119.7</ele>
        <time>2024-06-04T08:36:17Z</time>
      </trkpt>
      <trkpt lat="48.60208" lon="1.95924">
        <ele>118.3</ele>
        <time>2024-06-04T08:36:25Z</time>
      </trkpt>
      <trkpt lat="48.60213" lon="1.95912">
        <ele>117</ele>
        <time>2024-06-04T08:36:32Z</time>
      </trkpt>
      <trkpt lat="48.6022" lon="1.95899">
        <ele>115.8</ele>
        <time>2024-06-04T08:36:40Z</time>
      </trkpt>
      <trkpt lat="48.60225" lon="1.95887">
        <ele>114.8</ele>
        <time>2024-06-04T08:36:47Z</time>
      </trkpt>
      <trkpt lat="48.60231" lon="1.95877">
        <ele>114.2</ele>
        <time>2024-06-04T08:36:54Z</time>
      </trkpt>
      <trkpt lat="48.60238" lon="1.95867">
        <ele>113.6</ele>
        <time>2024-06-04T08:37:02Z</time>
      </trkpt>
      <trkpt lat="48.60241" lon="1.95854">
        <ele>113.2</ele>
        <time>2024-06-04T08:37:17Z</time>
      </trkpt>
      <trkpt lat="48.60249" lon="1.95845">
        <ele>113</ele>
        <time>2024-06-04T08:37:24Z</time>
      </trkpt>
      <trkpt lat="48.60252" lon="1.95831">
        <ele>112.8</ele>
        <time>2024-06-04T08:37:31Z</time>
      </trkpt>
      <trkpt lat="48.60259" lon="1.9582">
        <ele>112.2</ele>
        <time>2024-06-04T08:37:39Z</time>
      </trkpt>
      <trkpt lat="48.60266" lon="1.95811">
        <ele>111.6</ele>
        <time>2024-06-04T08:37:46Z</time>
      </trkpt>
      <trkpt lat="48.60273" lon="1.95803">
        <ele>111.2</ele>
        <time>2024-06-04T08:37:53Z</time>
      </trkpt>
      <trkpt lat="48.60283" lon="1.95801">
        <ele>111</ele>
        <time>2024-06-04T08:38:03Z</time>
      </trkpt>
      <trkpt lat="48.60289" lon="1.95812">
        <ele>111.1</ele>
        <time>2024-06-04T08:38:16Z</time>
      </trkpt>
      <trkpt lat="48.60294" lon="1.95823">
        <ele>111.3</ele>
        <time>2024-06-04T08:38:26Z</time>
      </trkpt>
      <trkpt lat="48.60304" lon="1.95829">
        <ele>111.1</ele>
        <time>2024-06-04T08:38:34Z</time>
      </trkpt>
      <trkpt lat="48.60312" lon="1.95838">
        <ele>111.2</ele>
        <time>2024-06-04T08:38:42Z</time>
      </trkpt>
      <trkpt lat="48.6032" lon="1.95846">
        <ele>111.4</ele>
        <time>2024-06-04T08:38:50Z</time>
      </trkpt>
      <trkpt lat="48.60328" lon="1.95853">
        <ele>111.7</ele>
        <time>2024-06-04T08:39:00Z</time>
      </trkpt>
      <trkpt lat="48.60337" lon="1.95854">
        <ele>111.6</ele>
        <time>2024-06-04T08:39:05Z</time>
      </trkpt>
      <trkpt lat="48.60346" lon="1.95859">
        <ele>111.4</ele>
        <time>2024-06-04T08:39:12Z</time>
      </trkpt>
      <trkpt lat="48.60357" lon="1.9586">
        <ele>111.1</ele>
        <time>2024-06-04T08:39:19Z</time>
      </trkpt>
      <trkpt lat="48.60367" lon="1.95862">
        <ele>111.1</ele>
        <time>2024-06-04T08:39:26Z</time>
      </trkpt>
      <trkpt lat="48.60377" lon="1.95863">
        <ele>111.1</ele>
        <time>2024-06-04T08:39:34Z</time>
      </trkpt>
      <trkpt lat="48.60386" lon="1.95862">
        <ele>111</ele>
        <time>2024-06-04T08:39:46Z</time>
      </trkpt>
      <trkpt lat="48.60396" lon="1.95864">
        <ele>110.9</ele>
        <time>2024-06-04T08:40:00Z</time>
      </trkpt>
      <trkpt lat="48.60406" lon="1.95867">
        <ele>110.7</ele>
        <time>2024-06-04T08:40:06Z</time>
      </trkpt>
      <trkpt lat="48.60415" lon="1.95871">
        <ele>110.7</ele>
        <time>2024-06-04T08:40:13Z</time>
      </trkpt>
      <trkpt lat="48.60424" lon="1.9587">
        <ele>110.4</ele>
        <time>2024-06-04T08:40:19Z</time>
      </trkpt>
      <trkpt lat="48.60435" lon="1.95872">
        <ele>110.2</ele>
        <time>2024-06-04T08:40:26Z</time>
      </trkpt>
      <trkpt lat="48.60444" lon="1.95876">
        <ele>110.1</ele>
        <time>2024-06-04T08:40:32Z</time>
      </trkpt>
      <trkpt lat="48.60453" lon="1.95879">
        <ele>110.3</ele>
        <time>2024-06-04T08:40:38Z</time>
      </trkpt>
      <trkpt lat="48.60462" lon="1.95884">
        <ele>110.6</ele>
        <time>2024-06-04T08:40:45Z</time>
      </trkpt>
      <trkpt lat="48.60471" lon="1.95889">
        <ele>111</ele>
        <time>2024-06-04T08:40:52Z</time>
      </trkpt>
      <trkpt lat="48.60481" lon="1.95894">
        <ele>110.7</ele>
        <time>2024-06-04T08:41:01Z</time>
      </trkpt>
      <trkpt lat="48.60491" lon="1.959">
        <ele>110.4</ele>
        <time>2024-06-04T08:41:09Z</time>
      </trkpt>
      <trkpt lat="48.605" lon="1.95907">
        <ele>110.3</ele>
        <time>2024-06-04T08:41:15Z</time>
      </trkpt>
      <trkpt lat="48.60508" lon="1.95915">
        <ele>110.6</ele>
        <time>2024-06-04T08:41:23Z</time>
      </trkpt>
      <trkpt lat="48.60515" lon="1.95924">
        <ele>111.1</ele>
        <time>2024-06-04T08:41:31Z</time>
      </trkpt>
      <trkpt lat="48.60523" lon="1.95933">
        <ele>111.1</ele>
        <time>2024-06-04T08:41:38Z</time>
      </trkpt>
      <trkpt lat="48.60529" lon="1.95945">
        <ele>110.9</ele>
        <time>2024-06-04T08:41:47Z</time>
      </trkpt>
      <trkpt lat="48.60538" lon="1.95949">
        <ele>110.7</ele>
        <time>2024-06-04T08:41:53Z</time>
      </trkpt>
      <trkpt lat="48.60544" lon="1.95959">
        <ele>111.1</ele>
        <time>2024-06-04T08:42:00Z</time>
      </trkpt>
      <trkpt lat="48.6055" lon="1.9597">
        <ele>111.5</ele>
        <time>2024-06-04T08:42:07Z</time>
      </trkpt>
      <trkpt lat="48.60558" lon="1.9598">
        <ele>111.3</ele>
        <time>2024-06-04T08:42:14Z</time>
      </trkpt>
      <trkpt lat="48.60567" lon="1.95984">
        <ele>110.6</ele>
        <time>2024-06-04T08:42:18Z</time>
      </trkpt>
      <trkpt lat="48.60577" lon="1.95988">
        <ele>109.8</ele>
        <time>2024-06-04T08:42:23Z</time>
      </trkpt>
      <trkpt lat="48.60584" lon="1.95998">
        <ele>109.8</ele>
        <time>2024-06-04T08:42:31Z</time>
      </trkpt>
      <trkpt lat="48.60593" lon="1.96005">
        <ele>110</ele>
        <time>2024-06-04T08:42:37Z</time>
      </trkpt>
      <trkpt lat="48.60602" lon="1.96005">
        <ele>109.7</ele>
        <time>2024-06-04T08:42:41Z</time>
      </trkpt>
      <trkpt lat="48.60611" lon="1.9601">
        <ele>109.7</ele>
        <time>2024-06-04T08:42:47Z</time>
      </trkpt>
      <trkpt lat="48.6062" lon="1.96012">
        <ele>109.8</ele>
        <time>2024-06-04T08:42:53Z</time>
      </trkpt>
      <trkpt lat="48.60629" lon="1.96012">
        <ele>109.8</ele>
        <time>2024-06-04T08:43:00Z</time>
      </trkpt>
      <trkpt lat="48.60637" lon="1.96004">
        <ele>109.3</ele>
        <time>2024-06-04T08:43:05Z</time>
      </trkpt>
      <trkpt lat="48.60646" lon="1.96001">
        <ele>109.1</ele>
        <time>2024-06-04T08:43:11Z</time>
      </trkpt>
      <trkpt lat="48.60655" lon="1.95996">
        <ele>108.7</ele>
        <time>2024-06-04T08:43:17Z</time>
      </trkpt>
      <trkpt lat="48.60663" lon="1.95988">
        <ele>108.1</ele>
        <time>2024-06-04T08:43:24Z</time>
      </trkpt>
      <trkpt lat="48.60667" lon="1.95973">
        <ele>107.1</ele>
        <time>2024-06-04T08:43:32Z</time>
      </trkpt>
      <trkpt lat="48.6067" lon="1.95959">
        <ele>107</ele>
        <time>2024-06-04T08:43:40Z</time>
      </trkpt>
      <trkpt lat="48.60668" lon="1.95945">
        <ele>107</ele>
        <time>2024-06-04T08:43:48Z</time>
      </trkpt>
      <trkpt lat="48.60664" lon="1.95932">
        <ele>107</ele>
        <time>2024-06-04T08:43:59Z</time>
      </trkpt>
      <trkpt lat="48.60666" lon="1.95917">
        <ele>107</ele>
        <time>2024-06-04T08:44:07Z</time>
      </trkpt>
      <trkpt lat="48.60673" lon="1.95908">
        <ele>107</ele>
        <time>2024-06-04T08:44:13Z</time>
      </trkpt>
      <trkpt lat="48.60679" lon="1.95896">
        <ele>107</ele>
        <time>2024-06-04T08:44:20Z</time>
      </trkpt>
      <trkpt lat="48.60684" lon="1.95882">
        <ele>107</ele>
        <time>2024-06-04T08:44:27Z</time>
      </trkpt>
      <trkpt lat="48.6069" lon="1.95869">
        <ele>107</ele>
        <time>2024-06-04T08:44:34Z</time>
      </trkpt>
      <trkpt lat="48.60692" lon="1.95854">
        <ele>107</ele>
        <time>2024-06-04T08:44:41Z</time>
      </trkpt>
      <trkpt lat="48.60693" lon="1.9584">
        <ele>107</ele>
        <time>2024-06-04T08:44:51Z</time>
      </trkpt>
      <trkpt lat="48.60694" lon="1.95825">
        <ele>107</ele>
        <time>2024-06-04T08:44:59Z</time>
      </trkpt>
      <trkpt lat="48.60693" lon="1.95811">
        <ele>107.1</ele>
        <time>2024-06-04T08:45:06Z</time>
      </trkpt>
      <trkpt lat="48.60696" lon="1.95799">
        <ele>107.2</ele>
        <time>2024-06-04T08:45:12Z</time>
      </trkpt>
      <trkpt lat="48.60702" lon="1.95787">
        <ele>107.5</ele>
        <time>2024-06-04T08:45:19Z</time>
      </trkpt>
      <trkpt lat="48.60705" lon="1.95774">
        <ele>107.6</ele>
        <time>2024-06-04T08:45:27Z</time>
      </trkpt>
      <trkpt lat="48.60701" lon="1.9576">
        <ele>107.8</ele>
        <time>2024-06-04T08:45:33Z</time>
      </trkpt>
      <trkpt lat="48.60695" lon="1.95748">
        <ele>108</ele>
        <time>2024-06-04T08:45:39Z</time>
      </trkpt>
      <trkpt lat="48.60691" lon="1.95735">
        <ele>108</ele>
        <time>2024-06-04T08:45:46Z</time>
      </trkpt>
      <trkpt lat="48.6069" lon="1.95719">
        <ele>108</ele>
        <time>2024-06-04T08:45:54Z</time>
      </trkpt>
      <trkpt lat="48.60688" lon="1.95705">
        <ele>108</ele>
        <time>2024-06-04T08:46:01Z</time>
      </trkpt>
      <trkpt lat="48.60686" lon="1.95691">
        <ele>108</ele>
        <time>2024-06-04T08:46:08Z</time>
      </trkpt>
      <trkpt lat="48.60687" lon="1.95675">
        <ele>108</ele>
        <time>2024-06-04T08:46:16Z</time>
      </trkpt>
      <trkpt lat="48.60681" lon="1.95664">
        <ele>107.9</ele>
        <time>2024-06-04T08:46:22Z</time>
      </trkpt>
      <trkpt lat="48.60672" lon="1.95659">
        <ele>108</ele>
        <time>2024-06-04T08:46:29Z</time>
      </trkpt>
      <trkpt lat="48.60663" lon="1.95654">
        <ele>108</ele>
        <time>2024-06-04T08:46:35Z</time>
      </trkpt>
      <trkpt lat="48.60654" lon="1.95648">
        <ele>108</ele>
        <time>2024-06-04T08:46:42Z</time>
      </trkpt>
      <trkpt lat="48.60646" lon="1.95643">
        <ele>108</ele>
        <time>2024-06-04T08:46:58Z</time>
      </trkpt>
      <trkpt lat="48.60642" lon="1.9563">
        <ele>108</ele>
        <time>2024-06-04T08:47:04Z</time>
      </trkpt>
      <trkpt lat="48.60635" lon="1.95621">
        <ele>108</ele>
        <time>2024-06-04T08:47:12Z</time>
      </trkpt>
      <trkpt lat="48.60626" lon="1.95614">
        <ele>108</ele>
        <time>2024-06-04T08:47:18Z</time>
      </trkpt>
      <trkpt lat="48.60619" lon="1.95603">
        <ele>108</ele>
        <time>2024-06-04T08:47:24Z</time>
      </trkpt>
      <trkpt lat="48.60614" lon="1.95592">
        <ele>108</ele>
        <time>2024-06-04T08:47:31Z</time>
      </trkpt>
      <trkpt lat="48.60611" lon="1.95577">
        <ele>108</ele>
        <time>2024-06-04T08:47:38Z</time>
      </trkpt>
      <trkpt lat="48.60614" lon="1.95564">
        <ele>108</ele>
        <time>2024-06-04T08:47:47Z</time>
      </trkpt>
      <trkpt lat="48.60611" lon="1.95548">
        <ele>108.3</ele>
        <time>2024-06-04T08:47:52Z</time>
      </trkpt>
      <trkpt lat="48.60608" lon="1.95534">
        <ele>108.8</ele>
        <time>2024-06-04T08:47:58Z</time>
      </trkpt>
      <trkpt lat="48.60605" lon="1.95521">
        <ele>109</ele>
        <time>2024-06-04T08:48:03Z</time>
      </trkpt>
      <trkpt lat="48.60603" lon="1.95507">
        <ele>109</ele>
        <time>2024-06-04T08:48:09Z</time>
      </trkpt>
      <trkpt lat="48.60604" lon="1.95491">
        <ele>109</ele>
        <time>2024-06-04T08:48:16Z</time>
      </trkpt>
      <trkpt lat="48.60601" lon="1.95477">
        <ele>109</ele>
        <time>2024-06-04T08:48:23Z</time>
      </trkpt>
      <trkpt lat="48.60596" lon="1.95464">
        <ele>109</ele>
        <time>2024-06-04T08:48:29Z</time>
      </trkpt>
      <trkpt lat="48.60593" lon="1.9545">
        <ele>109</ele>
        <time>2024-06-04T08:48:36Z</time>
      </trkpt>
      <trkpt lat="48.6059" lon="1.95437">
        <ele>109</ele>
        <time>2024-06-04T08:48:43Z</time>
      </trkpt>
      <trkpt lat="48.60585" lon="1.95424">
        <ele>109</ele>
        <time>2024-06-04T08:48:51Z</time>
      </trkpt>
      <trkpt lat="48.60585" lon="1.95409">
        <ele>109</ele>
        <time>2024-06-04T08:48:58Z</time>
      </trkpt>
      <trkpt lat="48.60587" lon="1.95395">
        <ele>109</ele>
        <time>2024-06-04T08:49:08Z</time>
      </trkpt>
      <trkpt lat="48.60586" lon="1.95381">
        <ele>109</ele>
        <time>2024-06-04T08:49:15Z</time>
      </trkpt>
      <trkpt lat="48.60583" lon="1.95366">
        <ele>109</ele>
        <time>2024-06-04T08:49:22Z</time>
      </trkpt>
      <trkpt lat="48.60577" lon="1.95354">
        <ele>109.4</ele>
        <time>2024-06-04T08:49:28Z</time>
      </trkpt>
      <trkpt lat="48.60574" lon="1.9534">
        <ele>109.8</ele>
        <time>2024-06-04T08:49:34Z</time>
      </trkpt>
      <trkpt lat="48.60573" lon="1.95325">
        <ele>110</ele>
        <time>2024-06-04T08:49:41Z</time>
      </trkpt>
      <trkpt lat="48.60572" lon="1.95311">
        <ele>110</ele>
        <time>2024-06-04T08:49:48Z</time>
      </trkpt>
      <trkpt lat="48.60569" lon="1.95297">
        <ele>110.2</ele>
        <time>2024-06-04T08:49:54Z</time>
      </trkpt>
      <trkpt lat="48.60566" lon="1.95283">
        <ele>110.5</ele>
        <time>2024-06-04T08:50:00Z</time>
      </trkpt>
      <trkpt lat="48.60563" lon="1.9527">
        <ele>110.8</ele>
        <time>2024-06-04T08:50:06Z</time>
      </trkpt>
      <trkpt lat="48.60561" lon="1.95256">
        <ele>111</ele>
        <time>2024-06-04T08:50:16Z</time>
      </trkpt>
      <trkpt lat="48.60565" lon="1.95243">
        <ele>111</ele>
        <time>2024-06-04T08:50:23Z</time>
      </trkpt>
      <trkpt lat="48.60568" lon="1.95229">
        <ele>111</ele>
        <time>2024-06-04T08:50:30Z</time>
      </trkpt>
      <trkpt lat="48.60571" lon="1.95216">
        <ele>111</ele>
        <time>2024-06-04T08:50:37Z</time>
      </trkpt>
      <trkpt lat="48.60569" lon="1.95201">
        <ele>111</ele>
        <time>2024-06-04T08:50:44Z</time>
      </trkpt>
      <trkpt lat="48.60567" lon="1.95186">
        <ele>111</ele>
        <time>2024-06-04T08:50:52Z</time>
      </trkpt>
      <trkpt lat="48.6057" lon="1.95173">
        <ele>111</ele>
        <time>2024-06-04T08:51:00Z</time>
      </trkpt>
      <trkpt lat="48.60577" lon="1.95163">
        <ele>111</ele>
        <time>2024-06-04T08:54:13Z</time>
      </trkpt>
      <trkpt lat="48.60568" lon="1.95158">
        <ele>111</ele>
        <time>2024-06-04T08:55:08Z</time>
      </trkpt>
      <trkpt lat="48.60561" lon="1.9515">
        <ele>111</ele>
        <time>2024-06-04T08:55:18Z</time>
      </trkpt>
      <trkpt lat="48.60554" lon="1.95142">
        <ele>111.1</ele>
        <time>2024-06-04T08:55:25Z</time>
      </trkpt>
      <trkpt lat="48.60546" lon="1.95133">
        <ele>111.4</ele>
        <time>2024-06-04T08:55:34Z</time>
      </trkpt>
      <trkpt lat="48.60539" lon="1.95123">
        <ele>111.6</ele>
        <time>2024-06-04T08:55:45Z</time>
      </trkpt>
      <trkpt lat="48.60538" lon="1.95109">
        <ele>111.6</ele>
        <time>2024-06-04T08:55:54Z</time>
      </trkpt>
      <trkpt lat="48.60535" lon="1.95097">
        <ele>111.8</ele>
        <time>2024-06-04T08:56:02Z</time>
      </trkpt>
      <trkpt lat="48.60529" lon="1.95084">
        <ele>111.9</ele>
        <time>2024-06-04T08:56:09Z</time>
      </trkpt>
      <trkpt lat="48.60523" lon="1.95075">
        <ele>112</ele>
        <time>2024-06-04T08:56:16Z</time>
      </trkpt>
      <trkpt lat="48.60516" lon="1.95063">
        <ele>112</ele>
        <time>2024-06-04T08:56:24Z</time>
      </trkpt>
      <trkpt lat="48.60507" lon="1.95059">
        <ele>112</ele>
        <time>2024-06-04T08:56:33Z</time>
      </trkpt>
      <trkpt lat="48.60499" lon="1.95052">
        <ele>112</ele>
        <time>2024-06-04T08:56:41Z</time>
      </trkpt>
      <trkpt lat="48.6049" lon="1.95048">
        <ele>112</ele>
        <time>2024-06-04T08:56:49Z</time>
      </trkpt>
      <trkpt lat="48.6048" lon="1.95052">
        <ele>112</ele>
        <time>2024-06-04T08:56:56Z</time>
      </trkpt>
      <trkpt lat="48.6047" lon="1.95057">
        <ele>112.1</ele>
        <time>2024-06-04T08:57:05Z</time>
      </trkpt>
      <trkpt lat="48.60461" lon="1.95059">
        <ele>112.4</ele>
        <time>2024-06-04T08:57:13Z</time>
      </trkpt>
      <trkpt lat="48.60452" lon="1.95066">
        <ele>112.5</ele>
        <time>2024-06-04T08:57:20Z</time>
      </trkpt>
      <trkpt lat="48.60443" lon="1.95069">
        <ele>112.5</ele>
        <time>2024-06-04T08:57:29Z</time>
      </trkpt>
      <trkpt lat="48.60434" lon="1.95074">
        <ele>112.6</ele>
        <time>2024-06-04T08:57:37Z</time>
      </trkpt>
      <trkpt lat="48.60425" lon="1.95079">
        <ele>112.7</ele>
        <time>2024-06-04T08:57:44Z</time>
      </trkpt>
      <trkpt lat="48.60416" lon="1.95084">
        <ele>113</ele>
        <time>2024-06-04T08:57:51Z</time>
      </trkpt>
      <trkpt lat="48.60406" lon="1.95086">
        <ele>113</ele>
        <time>2024-06-04T08:57:59Z</time>
      </trkpt>
      <trkpt lat="48.60397" lon="1.95089">
        <ele>113</ele>
        <time>2024-06-04T08:58:06Z</time>
      </trkpt>
      <trkpt lat="48.60387" lon="1.95094">
        <ele>113</ele>
        <time>2024-06-04T08:58:13Z</time>
      </trkpt>
      <trkpt lat="48.60378" lon="1.95099">
        <ele>113</ele>
        <time>2024-06-04T08:58:20Z</time>
      </trkpt>
      <trkpt lat="48.6037" lon="1.95103">
        <ele>113</ele>
        <time>2024-06-04T08:58:27Z</time>
      </trkpt>
      <trkpt lat="48.6036" lon="1.95109">
        <ele>113</ele>
        <time>2024-06-04T08:58:34Z</time>
      </trkpt>
      <trkpt lat="48.60352" lon="1.95114">
        <ele>113</ele>
        <time>2024-06-04T08:58:41Z</time>
      </trkpt>
      <trkpt lat="48.60342" lon="1.95117">
        <ele>113</ele>
        <time>2024-06-04T08:58:49Z</time>
      </trkpt>
      <trkpt lat="48.60332" lon="1.95122">
        <ele>113</ele>
        <time>2024-06-04T08:58:57Z</time>
      </trkpt>
      <trkpt lat="48.60323" lon="1.95126">
        <ele>113</ele>
        <time>2024-06-04T08:59:04Z</time>
      </trkpt>
      <trkpt lat="48.60314" lon="1.95133">
        <ele>113</ele>
        <time>2024-06-04T08:59:11Z</time>
      </trkpt>
      <trkpt lat="48.60305" lon="1.95137">
        <ele>113</ele>
        <time>2024-06-04T08:59:22Z</time>
      </trkpt>
      <trkpt lat="48.60296" lon="1.95142">
        <ele>113</ele>
        <time>2024-06-04T08:59:29Z</time>
      </trkpt>
      <trkpt lat="48.60287" lon="1.95149">
        <ele>113</ele>
        <time>2024-06-04T08:59:35Z</time>
      </trkpt>
      <trkpt lat="48.60278" lon="1.95155">
        <ele>113</ele>
        <time>2024-06-04T08:59:42Z</time>
      </trkpt>
      <trkpt lat="48.6027" lon="1.9516">
        <ele>113</ele>
        <time>2024-06-04T08:59:49Z</time>
      </trkpt>
      <trkpt lat="48.6026" lon="1.95165">
        <ele>113</ele>
        <time>2024-06-04T08:59:56Z</time>
      </trkpt>
      <trkpt lat="48.60251" lon="1.95169">
        <ele>113</ele>
        <time>2024-06-04T09:00:03Z</time>
      </trkpt>
      <trkpt lat="48.60242" lon="1.95173">
        <ele>113</ele>
        <time>2024-06-04T09:00:11Z</time>
      </trkpt>
      <trkpt lat="48.60233" lon="1.95177">
        <ele>113</ele>
        <time>2024-06-04T09:00:17Z</time>
      </trkpt>
      <trkpt lat="48.60223" lon="1.95177">
        <ele>113</ele>
        <time>2024-06-04T09:00:24Z</time>
      </trkpt>
      <trkpt lat="48.60214" lon="1.95182">
        <ele>113.1</ele>
        <time>2024-06-04T09:00:30Z</time>
      </trkpt>
      <trkpt lat="48.60204" lon="1.95186">
        <ele>113.2</ele>
        <time>2024-06-04T09:00:38Z</time>
      </trkpt>
      <trkpt lat="48.60195" lon="1.95191">
        <ele>113.1</ele>
        <time>2024-06-04T09:00:45Z</time>
      </trkpt>
      <trkpt lat="48.60187" lon="1.95196">
        <ele>113</ele>
        <time>2024-06-04T09:00:52Z</time>
      </trkpt>
      <trkpt lat="48.60177" lon="1.95201">
        <ele>113</ele>
        <time>2024-06-04T09:01:00Z</time>
      </trkpt>
      <trkpt lat="48.60168" lon="1.95206">
        <ele>113</ele>
        <time>2024-06-04T09:01:08Z</time>
      </trkpt>
      <trkpt lat="48.6016" lon="1.95211">
        <ele>113</ele>
        <time>2024-06-04T09:01:15Z</time>
      </trkpt>
      <trkpt lat="48.6015" lon="1.95214">
        <ele>113</ele>
        <time>2024-06-04T09:01:23Z</time>
      </trkpt>
      <trkpt lat="48.60141" lon="1.95211">
        <ele>113</ele>
        <time>2024-06-04T09:01:32Z</time>
      </trkpt>
      <trkpt lat="48.60137" lon="1.95224">
        <ele>113</ele>
        <time>2024-06-04T09:01:41Z</time>
      </trkpt>
      <trkpt lat="48.60129" lon="1.95231">
        <ele>113</ele>
        <time>2024-06-04T09:01:50Z</time>
      </trkpt>
      <trkpt lat="48.60119" lon="1.95237">
        <ele>113</ele>
        <time>2024-06-04T09:01:58Z</time>
      </trkpt>
      <trkpt lat="48.60111" lon="1.95242">
        <ele>113</ele>
        <time>2024-06-04T09:02:05Z</time>
      </trkpt>
      <trkpt lat="48.60101" lon="1.95243">
        <ele>113</ele>
        <time>2024-06-04T09:02:13Z</time>
      </trkpt>
      <trkpt lat="48.60093" lon="1.95251">
        <ele>113</ele>
        <time>2024-06-04T09:02:21Z</time>
      </trkpt>
      <trkpt lat="48.60087" lon="1.95262">
        <ele>113</ele>
        <time>2024-06-04T09:02:28Z</time>
      </trkpt>
      <trkpt lat="48.6008" lon="1.95273">
        <ele>113</ele>
        <time>2024-06-04T09:02:35Z</time>
      </trkpt>
      <trkpt lat="48.60074" lon="1.95284">
        <ele>112.9</ele>
        <time>2024-06-04T09:02:46Z</time>
      </trkpt>
      <trkpt lat="48.60069" lon="1.95295">
        <ele>112.7</ele>
        <time>2024-06-04T09:02:56Z</time>
      </trkpt>
      <trkpt lat="48.60061" lon="1.95302">
        <ele>112.8</ele>
        <time>2024-06-04T09:03:04Z</time>
      </trkpt>
      <trkpt lat="48.60052" lon="1.95306">
        <ele>113</ele>
        <time>2024-06-04T09:03:12Z</time>
      </trkpt>
      <trkpt lat="48.60043" lon="1.95314">
        <ele>113</ele>
        <time>2024-06-04T09:03:25Z</time>
      </trkpt>
      <trkpt lat="48.60038" lon="1.95326">
        <ele>113</ele>
        <time>2024-06-04T09:03:31Z</time>
      </trkpt>
      <trkpt lat="48.60032" lon="1.95337">
        <ele>113</ele>
        <time>2024-06-04T09:03:38Z</time>
      </trkpt>
      <trkpt lat="48.60027" lon="1.95348">
        <ele>113</ele>
        <time>2024-06-04T09:03:45Z</time>
      </trkpt>
      <trkpt lat="48.60022" lon="1.95361">
        <ele>113.2</ele>
        <time>2024-06-04T09:03:52Z</time>
      </trkpt>
      <trkpt lat="48.60015" lon="1.95373">
        <ele>113.7</ele>
        <time>2024-06-04T09:04:00Z</time>
      </trkpt>
      <trkpt lat="48.60009" lon="1.95383">
        <ele>113.9</ele>
        <time>2024-06-04T09:04:08Z</time>
      </trkpt>
      <trkpt lat="48.60004" lon="1.95395">
        <ele>114</ele>
        <time>2024-06-04T09:04:18Z</time>
      </trkpt>
      <trkpt lat="48.59998" lon="1.95408">
        <ele>114.1</ele>
        <time>2024-06-04T09:04:26Z</time>
      </trkpt>
      <trkpt lat="48.59992" lon="1.95421">
        <ele>114.3</ele>
        <time>2024-06-04T09:04:33Z</time>
      </trkpt>
      <trkpt lat="48.59987" lon="1.95434">
        <ele>114.5</ele>
        <time>2024-06-04T09:04:40Z</time>
      </trkpt>
      <trkpt lat="48.59982" lon="1.95446">
        <ele>114.7</ele>
        <time>2024-06-04T09:04:48Z</time>
      </trkpt>
      <trkpt lat="48.59977" lon="1.95458">
        <ele>115.3</ele>
        <time>2024-06-04T09:04:56Z</time>
      </trkpt>
      <trkpt lat="48.59972" lon="1.95469">
        <ele>115.9</ele>
        <time>2024-06-04T09:05:04Z</time>
      </trkpt>
      <trkpt lat="48.59966" lon="1.9548">
        <ele>116.7</ele>
        <time>2024-06-04T09:05:12Z</time>
      </trkpt>
      <trkpt lat="48.5996" lon="1.95493">
        <ele>117.6</ele>
        <time>2024-06-04T09:05:21Z</time>
      </trkpt>
      <trkpt lat="48.59955" lon="1.95504">
        <ele>118.4</ele>
        <time>2024-06-04T09:05:29Z</time>
      </trkpt>
      <trkpt lat="48.59948" lon="1.95515">
        <ele>119.3</ele>
        <time>2024-06-04T09:05:37Z</time>
      </trkpt>
      <trkpt lat="48.59942" lon="1.95525">
        <ele>119.9</ele>
        <time>2024-06-04T09:05:47Z</time>
      </trkpt>
      <trkpt lat="48.59937" lon="1.95537">
        <ele>120.2</ele>
        <time>2024-06-04T09:05:56Z</time>
      </trkpt>
      <trkpt lat="48.59931" lon="1.95548">
        <ele>120.4</ele>
        <time>2024-06-04T09:06:04Z</time>
      </trkpt>
      <trkpt lat="48.59926" lon="1.9556">
        <ele>120.4</ele>
        <time>2024-06-04T09:06:11Z</time>
      </trkpt>
      <trkpt lat="48.5992" lon="1.95571">
        <ele>120.6</ele>
        <time>2024-06-04T09:06:19Z</time>
      </trkpt>
      <trkpt lat="48.59915" lon="1.95583">
        <ele>121</ele>
        <time>2024-06-04T09:06:27Z</time>
      </trkpt>
      <trkpt lat="48.5991" lon="1.95595">
        <ele>121.2</ele>
        <time>2024-06-04T09:06:36Z</time>
      </trkpt>
      <trkpt lat="48.59905" lon="1.95607">
        <ele>121.5</ele>
        <time>2024-06-04T09:06:43Z</time>
      </trkpt>
      <trkpt lat="48.599" lon="1.95619">
        <ele>121.7</ele>
        <time>2024-06-04T09:06:51Z</time>
      </trkpt>
      <trkpt lat="48.59894" lon="1.9563">
        <ele>121.8</ele>
        <time>2024-06-04T09:07:02Z</time>
      </trkpt>
      <trkpt lat="48.59888" lon="1.95641">
        <ele>122</ele>
        <time>2024-06-04T09:07:10Z</time>
      </trkpt>
      <trkpt lat="48.59882" lon="1.95653">
        <ele>122.1</ele>
        <time>2024-06-04T09:07:17Z</time>
      </trkpt>
      <trkpt lat="48.59878" lon="1.95665">
        <ele>122.2</ele>
        <time>2024-06-04T09:07:29Z</time>
      </trkpt>
      <trkpt lat="48.59871" lon="1.95675">
        <ele>121.9</ele>
        <time>2024-06-04T09:09:08Z</time>
      </trkpt>
      <trkpt lat="48.59865" lon="1.95686">
        <ele>121.9</ele>
        <time>2024-06-04T09:09:20Z</time>
      </trkpt>
      <trkpt lat="48.59861" lon="1.95699">
        <ele>122.1</ele>
        <time>2024-06-04T09:09:28Z</time>
      </trkpt>
      <trkpt lat="48.59856" lon="1.95711">
        <ele>122.4</ele>
        <time>2024-06-04T09:09:36Z</time>
      </trkpt>
      <trkpt lat="48.59851" lon="1.95724">
        <ele>122.7</ele>
        <time>2024-06-04T09:09:42Z</time>
      </trkpt>
      <trkpt lat="48.59845" lon="1.95736">
        <ele>122.7</ele>
        <time>2024-06-04T09:09:50Z</time>
      </trkpt>
      <trkpt lat="48.5984" lon="1.95749">
        <ele>123</ele>
        <time>2024-06-04T09:09:58Z</time>
      </trkpt>
      <trkpt lat="48.59834" lon="1.9576">
        <ele>123</ele>
        <time>2024-06-04T09:10:05Z</time>
      </trkpt>
      <trkpt lat="48.59827" lon="1.9577">
        <ele>122.9</ele>
        <time>2024-06-04T09:10:14Z</time>
      </trkpt>
      <trkpt lat="48.59821" lon="1.9578">
        <ele>123</ele>
        <time>2024-06-04T09:10:23Z</time>
      </trkpt>
      <trkpt lat="48.59815" lon="1.9579">
        <ele>123.2</ele>
        <time>2024-06-04T09:10:31Z</time>
      </trkpt>
      <trkpt lat="48.59818" lon="1.95804">
        <ele>123.4</ele>
        <time>2024-06-04T09:10:41Z</time>
      </trkpt>
      <trkpt lat="48.59813" lon="1.95817">
        <ele>123.7</ele>
        <time>2024-06-04T09:10:46Z</time>
      </trkpt>
      <trkpt lat="48.59806" lon="1.95829">
        <ele>123.9</ele>
        <time>2024-06-04T09:10:52Z</time>
      </trkpt>
      <trkpt lat="48.598" lon="1.9584">
        <ele>124.2</ele>
        <time>2024-06-04T09:10:59Z</time>
      </trkpt>
      <trkpt lat="48.59794" lon="1.95852">
        <ele>124.7</ele>
        <time>2024-06-04T09:11:06Z</time>
      </trkpt>
      <trkpt lat="48.5979" lon="1.95865">
        <ele>125.2</ele>
        <time>2024-06-04T09:11:12Z</time>
      </trkpt>
      <trkpt lat="48.59784" lon="1.95876">
        <ele>125.6</ele>
        <time>2024-06-04T09:11:19Z</time>
      </trkpt>
      <trkpt lat="48.59777" lon="1.95886">
        <ele>125.9</ele>
        <time>2024-06-04T09:11:27Z</time>
      </trkpt>
      <trkpt lat="48.59771" lon="1.95898">
        <ele>126.1</ele>
        <time>2024-06-04T09:11:36Z</time>
      </trkpt>
      <trkpt lat="48.59765" lon="1.9591">
        <ele>126.3</ele>
        <time>2024-06-04T09:11:44Z</time>
      </trkpt>
      <trkpt lat="48.5976" lon="1.95923">
        <ele>126.7</ele>
        <time>2024-06-04T09:11:52Z</time>
      </trkpt>
      <trkpt lat="48.59753" lon="1.95935">
        <ele>127.4</ele>
        <time>2024-06-04T09:11:59Z</time>
      </trkpt>
      <trkpt lat="48.59748" lon="1.95947">
        <ele>128</ele>
        <time>2024-06-04T09:12:07Z</time>
      </trkpt>
      <trkpt lat="48.59742" lon="1.95959">
        <ele>128.2</ele>
        <time>2024-06-04T09:12:16Z</time>
      </trkpt>
      <trkpt lat="48.59735" lon="1.95969">
        <ele>128.4</ele>
        <time>2024-06-04T09:12:24Z</time>
      </trkpt>
      <trkpt lat="48.5973" lon="1.95982">
        <ele>128.6</ele>
        <time>2024-06-04T09:12:31Z</time>
      </trkpt>
      <trkpt lat="48.59725" lon="1.95994">
        <ele>128.9</ele>
        <time>2024-06-04T09:12:39Z</time>
      </trkpt>
      <trkpt lat="48.59719" lon="1.96006">
        <ele>129.1</ele>
        <time>2024-06-04T09:12:48Z</time>
      </trkpt>
      <trkpt lat="48.59713" lon="1.96017">
        <ele>129.3</ele>
        <time>2024-06-04T09:12:56Z</time>
      </trkpt>
      <trkpt lat="48.59707" lon="1.96029">
        <ele>129.5</ele>
        <time>2024-06-04T09:13:05Z</time>
      </trkpt>
      <trkpt lat="48.59702" lon="1.96041">
        <ele>130.1</ele>
        <time>2024-06-04T09:13:12Z</time>
      </trkpt>
      <trkpt lat="48.59696" lon="1.96052">
        <ele>130.8</ele>
        <time>2024-06-04T09:13:20Z</time>
      </trkpt>
      <trkpt lat="48.59691" lon="1.96065">
        <ele>132.1</ele>
        <time>2024-06-04T09:13:28Z</time>
      </trkpt>
      <trkpt lat="48.59686" lon="1.96077">
        <ele>133.4</ele>
        <time>2024-06-04T09:13:37Z</time>
      </trkpt>
      <trkpt lat="48.59681" lon="1.96089">
        <ele>134.4</ele>
        <time>2024-06-04T09:13:43Z</time>
      </trkpt>
      <trkpt lat="48.59675" lon="1.96102">
        <ele>135.3</ele>
        <time>2024-06-04T09:13:53Z</time>
      </trkpt>
      <trkpt lat="48.5967" lon="1.96113">
        <ele>136.1</ele>
        <time>2024-06-04T09:14:01Z</time>
      </trkpt>
      <trkpt lat="48.59662" lon="1.96122">
        <ele>136.6</ele>
        <time>2024-06-04T09:14:10Z</time>
      </trkpt>
      <trkpt lat="48.59656" lon="1.96132">
        <ele>137.1</ele>
        <time>2024-06-04T09:14:19Z</time>
      </trkpt>
      <trkpt lat="48.59652" lon="1.96147">
        <ele>138.3</ele>
        <time>2024-06-04T09:14:27Z</time>
      </trkpt>
      <trkpt lat="48.59647" lon="1.96159">
        <ele>139.5</ele>
        <time>2024-06-04T09:14:35Z</time>
      </trkpt>
      <trkpt lat="48.5964" lon="1.9617">
        <ele>140.5</ele>
        <time>2024-06-04T09:14:44Z</time>
      </trkpt>
      <trkpt lat="48.59635" lon="1.96183">
        <ele>142.2</ele>
        <time>2024-06-04T09:14:52Z</time>
      </trkpt>
      <trkpt lat="48.5963" lon="1.96197">
        <ele>144</ele>
        <time>2024-06-04T09:15:00Z</time>
      </trkpt>
      <trkpt lat="48.59626" lon="1.96209">
        <ele>145.6</ele>
        <time>2024-06-04T09:15:08Z</time>
      </trkpt>
      <trkpt lat="48.5962" lon="1.96221">
        <ele>147.1</ele>
        <time>2024-06-04T09:15:17Z</time>
      </trkpt>
      <trkpt lat="48.59616" lon="1.96233">
        <ele>148.8</ele>
        <time>2024-06-04T09:15:27Z</time>
      </trkpt>
      <trkpt lat="48.5961" lon="1.96245">
        <ele>150.2</ele>
        <time>2024-06-04T09:15:37Z</time>
      </trkpt>
      <trkpt lat="48.59605" lon="1.96257">
        <ele>151.3</ele>
        <time>2024-06-04T09:15:46Z</time>
      </trkpt>
      <trkpt lat="48.59599" lon="1.96267">
        <ele>152.2</ele>
        <time>2024-06-04T09:15:54Z</time>
      </trkpt>
      <trkpt lat="48.59594" lon="1.9628">
        <ele>153.5</ele>
        <time>2024-06-04T09:16:03Z</time>
      </trkpt>
      <trkpt lat="48.59588" lon="1.96292">
        <ele>154</ele>
        <time>2024-06-04T09:16:12Z</time>
      </trkpt>
      <trkpt lat="48.59583" lon="1.96304">
        <ele>154.7</ele>
        <time>2024-06-04T09:16:20Z</time>
      </trkpt>
      <trkpt lat="48.59578" lon="1.96316">
        <ele>154.9</ele>
        <time>2024-06-04T09:16:27Z</time>
      </trkpt>
      <trkpt lat="48.59572" lon="1.96328">
        <ele>155</ele>
        <time>2024-06-04T09:16:34Z</time>
      </trkpt>
      <trkpt lat="48.59566" lon="1.96339">
        <ele>154.9</ele>
        <time>2024-06-04T09:16:43Z</time>
      </trkpt>
      <trkpt lat="48.59561" lon="1.96351">
        <ele>154.9</ele>
        <time>2024-06-04T09:16:54Z</time>
      </trkpt>
      <trkpt lat="48.59555" lon="1.96363">
        <ele>155</ele>
        <time>2024-06-04T09:17:01Z</time>
      </trkpt>
      <trkpt lat="48.59549" lon="1.96375">
        <ele>153.9</ele>
        <time>2024-06-04T09:17:09Z</time>
      </trkpt>
      <trkpt lat="48.59544" lon="1.96386">
        <ele>153.3</ele>
        <time>2024-06-04T09:17:15Z</time>
      </trkpt>
      <trkpt lat="48.59538" lon="1.96397">
        <ele>152.5</ele>
        <time>2024-06-04T09:17:24Z</time>
      </trkpt>
      <trkpt lat="48.59532" lon="1.96408">
        <ele>151.6</ele>
        <time>2024-06-04T09:17:31Z</time>
      </trkpt>
      <trkpt lat="48.59526" lon="1.96419">
        <ele>150.8</ele>
        <time>2024-06-04T09:17:37Z</time>
      </trkpt>
      <trkpt lat="48.59522" lon="1.96431">
        <ele>150.4</ele>
        <time>2024-06-04T09:17:44Z</time>
      </trkpt>
      <trkpt lat="48.59517" lon="1.96444">
        <ele>150</ele>
        <time>2024-06-04T09:17:51Z</time>
      </trkpt>
      <trkpt lat="48.59512" lon="1.96456">
        <ele>149.4</ele>
        <time>2024-06-04T09:17:58Z</time>
      </trkpt>
      <trkpt lat="48.59505" lon="1.96467">
        <ele>148.6</ele>
        <time>2024-06-04T09:18:05Z</time>
      </trkpt>
      <trkpt lat="48.595" lon="1.9648">
        <ele>148</ele>
        <time>2024-06-04T09:18:12Z</time>
      </trkpt>
      <trkpt lat="48.59494" lon="1.96491">
        <ele>146.9</ele>
        <time>2024-06-04T09:18:20Z</time>
      </trkpt>
      <trkpt lat="48.59489" lon="1.96503">
        <ele>146</ele>
        <time>2024-06-04T09:18:28Z</time>
      </trkpt>
      <trkpt lat="48.59484" lon="1.96515">
        <ele>144.9</ele>
        <time>2024-06-04T09:18:36Z</time>
      </trkpt>
      <trkpt lat="48.59479" lon="1.96527">
        <ele>144</ele>
        <time>2024-06-04T09:18:43Z</time>
      </trkpt>
      <trkpt lat="48.59473" lon="1.96538">
        <ele>143.2</ele>
        <time>2024-06-04T09:18:50Z</time>
      </trkpt>
      <trkpt lat="48.59467" lon="1.96549">
        <ele>142.6</ele>
        <time>2024-06-04T09:18:58Z</time>
      </trkpt>
      <trkpt lat="48.59461" lon="1.96559">
        <ele>142.3</ele>
        <time>2024-06-04T09:19:06Z</time>
      </trkpt>
      <trkpt lat="48.59455" lon="1.9657">
        <ele>142.3</ele>
        <time>2024-06-04T09:19:13Z</time>
      </trkpt>
      <trkpt lat="48.5945" lon="1.96582">
        <ele>142.3</ele>
        <time>2024-06-04T09:19:19Z</time>
      </trkpt>
      <trkpt lat="48.59445" lon="1.96594">
        <ele>142.4</ele>
        <time>2024-06-04T09:19:26Z</time>
      </trkpt>
      <trkpt lat="48.5944" lon="1.96608">
        <ele>142.6</ele>
        <time>2024-06-04T09:19:35Z</time>
      </trkpt>
      <trkpt lat="48.59435" lon="1.9662">
        <ele>142.4</ele>
        <time>2024-06-04T09:19:44Z</time>
      </trkpt>
      <trkpt lat="48.59431" lon="1.96633">
        <ele>142.4</ele>
        <time>2024-06-04T09:19:52Z</time>
      </trkpt>
      <trkpt lat="48.59425" lon="1.96645">
        <ele>142.5</ele>
        <time>2024-06-04T09:19:59Z</time>
      </trkpt>
      <trkpt lat="48.59419" lon="1.96656">
        <ele>142.7</ele>
        <time>2024-06-04T09:20:06Z</time>
      </trkpt>
      <trkpt lat="48.59414" lon="1.96666">
        <ele>142.8</ele>
        <time>2024-06-04T09:20:13Z</time>
      </trkpt>
      <trkpt lat="48.59409" lon="1.96679">
        <ele>142.9</ele>
        <time>2024-06-04T09:20:20Z</time>
      </trkpt>
      <trkpt lat="48.59404" lon="1.96692">
        <ele>143</ele>
        <time>2024-06-04T09:20:27Z</time>
      </trkpt>
      <trkpt lat="48.59399" lon="1.96703">
        <ele>143.2</ele>
        <time>2024-06-04T09:20:34Z</time>
      </trkpt>
      <trkpt lat="48.59393" lon="1.96715">
        <ele>143.7</ele>
        <time>2024-06-04T09:20:42Z</time>
      </trkpt>
      <trkpt lat="48.59387" lon="1.96726">
        <ele>143.9</ele>
        <time>2024-06-04T09:20:50Z</time>
      </trkpt>
      <trkpt lat="48.59381" lon="1.96738">
        <ele>143.6</ele>
        <time>2024-06-04T09:20:59Z</time>
      </trkpt>
      <trkpt lat="48.59375" lon="1.96749">
        <ele>143.4</ele>
        <time>2024-06-04T09:21:08Z</time>
      </trkpt>
      <trkpt lat="48.59368" lon="1.96761">
        <ele>143</ele>
        <time>2024-06-04T09:21:16Z</time>
      </trkpt>
      <trkpt lat="48.59362" lon="1.96772">
        <ele>142.7</ele>
        <time>2024-06-04T09:21:24Z</time>
      </trkpt>
      <trkpt lat="48.59356" lon="1.96783">
        <ele>142.3</ele>
        <time>2024-06-04T09:21:31Z</time>
      </trkpt>
      <trkpt lat="48.5935" lon="1.96794">
        <ele>141.9</ele>
        <time>2024-06-04T09:21:38Z</time>
      </trkpt>
      <trkpt lat="48.59344" lon="1.96805">
        <ele>141.1</ele>
        <time>2024-06-04T09:21:45Z</time>
      </trkpt>
      <trkpt lat="48.59339" lon="1.96817">
        <ele>140.1</ele>
        <time>2024-06-04T09:21:53Z</time>
      </trkpt>
      <trkpt lat="48.59334" lon="1.96829">
        <ele>139.1</ele>
        <time>2024-06-04T09:22:01Z</time>
      </trkpt>
      <trkpt lat="48.5933" lon="1.96841">
        <ele>138.5</ele>
        <time>2024-06-04T09:22:08Z</time>
      </trkpt>
      <trkpt lat="48.59324" lon="1.96852">
        <ele>137.4</ele>
        <time>2024-06-04T09:22:17Z</time>
      </trkpt>
      <trkpt lat="48.59318" lon="1.96863">
        <ele>136.2</ele>
        <time>2024-06-04T09:22:24Z</time>
      </trkpt>
      <trkpt lat="48.59312" lon="1.96873">
        <ele>134.6</ele>
        <time>2024-06-04T09:22:36Z</time>
      </trkpt>
      <trkpt lat="48.59308" lon="1.96887">
        <ele>133.5</ele>
        <time>2024-06-04T09:22:44Z</time>
      </trkpt>
      <trkpt lat="48.59302" lon="1.96899">
        <ele>132.4</ele>
        <time>2024-06-04T09:22:50Z</time>
      </trkpt>
      <trkpt lat="48.59297" lon="1.9691">
        <ele>131.4</ele>
        <time>2024-06-04T09:22:57Z</time>
      </trkpt>
      <trkpt lat="48.59292" lon="1.96922">
        <ele>130.3</ele>
        <time>2024-06-04T09:23:05Z</time>
      </trkpt>
      <trkpt lat="48.59286" lon="1.96934">
        <ele>128.9</ele>
        <time>2024-06-04T09:23:12Z</time>
      </trkpt>
      <trkpt lat="48.59281" lon="1.96946">
        <ele>127.5</ele>
        <time>2024-06-04T09:23:19Z</time>
      </trkpt>
      <trkpt lat="48.59275" lon="1.96958">
        <ele>126.2</ele>
        <time>2024-06-04T09:23:26Z</time>
      </trkpt>
      <trkpt lat="48.5927" lon="1.96971">
        <ele>124.9</ele>
        <time>2024-06-04T09:23:33Z</time>
      </trkpt>
      <trkpt lat="48.59265" lon="1.96983">
        <ele>124.4</ele>
        <time>2024-06-04T09:23:40Z</time>
      </trkpt>
      <trkpt lat="48.59259" lon="1.96995">
        <ele>123.6</ele>
        <time>2024-06-04T09:23:47Z</time>
      </trkpt>
      <trkpt lat="48.59253" lon="1.97007">
        <ele>122.8</ele>
        <time>2024-06-04T09:23:54Z</time>
      </trkpt>
      <trkpt lat="48.59247" lon="1.97017">
        <ele>122.3</ele>
        <time>2024-06-04T09:24:01Z</time>
      </trkpt>
      <trkpt lat="48.59241" lon="1.97028">
        <ele>122.1</ele>
        <time>2024-06-04T09:24:07Z</time>
      </trkpt>
      <trkpt lat="48.59235" lon="1.9704">
        <ele>121.9</ele>
        <time>2024-06-04T09:24:14Z</time>
      </trkpt>
      <trkpt lat="48.59229" lon="1.97053">
        <ele>121.7</ele>
        <time>2024-06-04T09:24:21Z</time>
      </trkpt>
      <trkpt lat="48.59224" lon="1.97066">
        <ele>121.2</ele>
        <time>2024-06-04T09:24:27Z</time>
      </trkpt>
      <trkpt lat="48.59219" lon="1.97079">
        <ele>120.8</ele>
        <time>2024-06-04T09:24:34Z</time>
      </trkpt>
      <trkpt lat="48.59213" lon="1.97091">
        <ele>120.3</ele>
        <time>2024-06-04T09:24:40Z</time>
      </trkpt>
      <trkpt lat="48.59207" lon="1.97103">
        <ele>119.9</ele>
        <time>2024-06-04T09:24:47Z</time>
      </trkpt>
      <trkpt lat="48.59202" lon="1.97115">
        <ele>119.5</ele>
        <time>2024-06-04T09:24:55Z</time>
      </trkpt>
      <trkpt lat="48.59196" lon="1.97128">
        <ele>119.1</ele>
        <time>2024-06-04T09:25:03Z</time>
      </trkpt>
      <trkpt lat="48.59192" lon="1.97141">
        <ele>118.8</ele>
        <time>2024-06-04T09:25:10Z</time>
      </trkpt>
      <trkpt lat="48.59186" lon="1.97152">
        <ele>118.4</ele>
        <time>2024-06-04T09:25:17Z</time>
      </trkpt>
      <trkpt lat="48.5918" lon="1.97162">
        <ele>117.9</ele>
        <time>2024-06-04T09:25:25Z</time>
      </trkpt>
      <trkpt lat="48.59173" lon="1.97173">
        <ele>117.4</ele>
        <time>2024-06-04T09:25:31Z</time>
      </trkpt>
      <trkpt lat="48.59168" lon="1.97185">
        <ele>117.1</ele>
        <time>2024-06-04T09:25:37Z</time>
      </trkpt>
      <trkpt lat="48.59163" lon="1.97197">
        <ele>116.7</ele>
        <time>2024-06-04T09:25:45Z</time>
      </trkpt>
      <trkpt lat="48.59157" lon="1.9721">
        <ele>116.3</ele>
        <time>2024-06-04T09:25:51Z</time>
      </trkpt>
      <trkpt lat="48.59153" lon="1.97223">
        <ele>116</ele>
        <time>2024-06-04T09:25:57Z</time>
      </trkpt>
      <trkpt lat="48.59147" lon="1.97236">
        <ele>115.6</ele>
        <time>2024-06-04T09:26:05Z</time>
      </trkpt>
      <trkpt lat="48.59143" lon="1.97247">
        <ele>115.3</ele>
        <time>2024-06-04T09:26:11Z</time>
      </trkpt>
      <trkpt lat="48.59137" lon="1.9726">
        <ele>114.9</ele>
        <time>2024-06-04T09:26:19Z</time>
      </trkpt>
      <trkpt lat="48.59132" lon="1.97272">
        <ele>114.7</ele>
        <time>2024-06-04T09:26:27Z</time>
      </trkpt>
      <trkpt lat="48.59126" lon="1.97283">
        <ele>114.5</ele>
        <time>2024-06-04T09:26:35Z</time>
      </trkpt>
      <trkpt lat="48.5912" lon="1.97293">
        <ele>114.3</ele>
        <time>2024-06-04T09:26:42Z</time>
      </trkpt>
      <trkpt lat="48.59115" lon="1.97304">
        <ele>114.1</ele>
        <time>2024-06-04T09:26:48Z</time>
      </trkpt>
      <trkpt lat="48.59105" lon="1.97308">
        <ele>114</ele>
        <time>2024-06-04T09:29:28Z</time>
      </trkpt>
      <trkpt lat="48.59096" lon="1.97304">
        <ele>114</ele>
        <time>2024-06-04T09:29:35Z</time>
      </trkpt>
      <trkpt lat="48.59085" lon="1.973">
        <ele>113.8</ele>
        <time>2024-06-04T09:29:43Z</time>
      </trkpt>
      <trkpt lat="48.59076" lon="1.97293">
        <ele>113.4</ele>
        <time>2024-06-04T09:29:51Z</time>
      </trkpt>
      <trkpt lat="48.59067" lon="1.97286">
        <ele>113.1</ele>
        <time>2024-06-04T09:29:58Z</time>
      </trkpt>
      <trkpt lat="48.59059" lon="1.97282">
        <ele>113</ele>
        <time>2024-06-04T09:30:05Z</time>
      </trkpt>
      <trkpt lat="48.59049" lon="1.97276">
        <ele>112.8</ele>
        <time>2024-06-04T09:30:13Z</time>
      </trkpt>
      <trkpt lat="48.59041" lon="1.97269">
        <ele>112.5</ele>
        <time>2024-06-04T09:30:20Z</time>
      </trkpt>
      <trkpt lat="48.59033" lon="1.97261">
        <ele>112.2</ele>
        <time>2024-06-04T09:30:27Z</time>
      </trkpt>
      <trkpt lat="48.59027" lon="1.97249">
        <ele>112</ele>
        <time>2024-06-04T09:30:35Z</time>
      </trkpt>
      <trkpt lat="48.59031" lon="1.97237">
        <ele>112.1</ele>
        <time>2024-06-04T09:30:43Z</time>
      </trkpt>
      <trkpt lat="48.59034" lon="1.97224">
        <ele>112.2</ele>
        <time>2024-06-04T09:30:50Z</time>
      </trkpt>
      <trkpt lat="48.59037" lon="1.97209">
        <ele>112.6</ele>
        <time>2024-06-04T09:30:57Z</time>
      </trkpt>
      <trkpt lat="48.59038" lon="1.97195">
        <ele>113</ele>
        <time>2024-06-04T09:31:04Z</time>
      </trkpt>
      <trkpt lat="48.59037" lon="1.9718">
        <ele>113</ele>
        <time>2024-06-04T09:31:13Z</time>
      </trkpt>
      <trkpt lat="48.59041" lon="1.97167">
        <ele>113</ele>
        <time>2024-06-04T09:31:22Z</time>
      </trkpt>
      <trkpt lat="48.59042" lon="1.97153">
        <ele>113</ele>
        <time>2024-06-04T09:31:30Z</time>
      </trkpt>
      <trkpt lat="48.59043" lon="1.97138">
        <ele>113</ele>
        <time>2024-06-04T09:31:38Z</time>
      </trkpt>
      <trkpt lat="48.59048" lon="1.97127">
        <ele>113</ele>
        <time>2024-06-04T09:31:46Z</time>
      </trkpt>
      <trkpt lat="48.59049" lon="1.97113">
        <ele>113</ele>
        <time>2024-06-04T09:31:53Z</time>
      </trkpt>
      <trkpt lat="48.59054" lon="1.971">
        <ele>113</ele>
        <time>2024-06-04T09:32:00Z</time>
      </trkpt>
      <trkpt lat="48.59056" lon="1.97085">
        <ele>113</ele>
        <time>2024-06-04T09:32:08Z</time>
      </trkpt>
      <trkpt lat="48.59058" lon="1.97071">
        <ele>113.1</ele>
        <time>2024-06-04T09:32:15Z</time>
      </trkpt>
      <trkpt lat="48.59063" lon="1.97059">
        <ele>113.3</ele>
        <time>2024-06-04T09:32:22Z</time>
      </trkpt>
      <trkpt lat="48.59064" lon="1.97046">
        <ele>113.3</ele>
        <time>2024-06-04T09:32:29Z</time>
      </trkpt>
      <trkpt lat="48.59066" lon="1.97031">
        <ele>113.4</ele>
        <time>2024-06-04T09:32:37Z</time>
      </trkpt>
      <trkpt lat="48.59071" lon="1.97018">
        <ele>113.4</ele>
        <time>2024-06-04T09:32:46Z</time>
      </trkpt>
      <trkpt lat="48.59074" lon="1.97004">
        <ele>113.1</ele>
        <time>2024-06-04T09:32:54Z</time>
      </trkpt>
      <trkpt lat="48.59079" lon="1.96991">
        <ele>113</ele>
        <time>2024-06-04T09:33:03Z</time>
      </trkpt>
      <trkpt lat="48.59084" lon="1.96979">
        <ele>113</ele>
        <time>2024-06-04T09:33:12Z</time>
      </trkpt>
      <trkpt lat="48.59089" lon="1.96965">
        <ele>113.2</ele>
        <time>2024-06-04T09:33:20Z</time>
      </trkpt>
      <trkpt lat="48.59092" lon="1.96951">
        <ele>113.3</ele>
        <time>2024-06-04T09:33:27Z</time>
      </trkpt>
      <trkpt lat="48.59093" lon="1.96938">
        <ele>113.4</ele>
        <time>2024-06-04T09:33:33Z</time>
      </trkpt>
      <trkpt lat="48.59098" lon="1.96925">
        <ele>113.5</ele>
        <time>2024-06-04T09:33:41Z</time>
      </trkpt>
      <trkpt lat="48.59101" lon="1.96912">
        <ele>113.5</ele>
        <time>2024-06-04T09:33:49Z</time>
      </trkpt>
      <trkpt lat="48.59103" lon="1.96898">
        <ele>113.2</ele>
        <time>2024-06-04T09:33:56Z</time>
      </trkpt>
      <trkpt lat="48.59108" lon="1.96885">
        <ele>113</ele>
        <time>2024-06-04T09:34:03Z</time>
      </trkpt>
      <trkpt lat="48.5911" lon="1.96872">
        <ele>113</ele>
        <time>2024-06-04T09:34:10Z</time>
      </trkpt>
      <trkpt lat="48.59115" lon="1.96858">
        <ele>113.3</ele>
        <time>2024-06-04T09:34:18Z</time>
      </trkpt>
      <trkpt lat="48.59118" lon="1.96843">
        <ele>113.5</ele>
        <time>2024-06-04T09:34:25Z</time>
      </trkpt>
      <trkpt lat="48.59119" lon="1.9683">
        <ele>113.5</ele>
        <time>2024-06-04T09:34:31Z</time>
      </trkpt>
      <trkpt lat="48.59124" lon="1.96818">
        <ele>113.9</ele>
        <time>2024-06-04T09:34:39Z</time>
      </trkpt>
      <trkpt lat="48.59125" lon="1.96804">
        <ele>114</ele>
        <time>2024-06-04T09:34:45Z</time>
      </trkpt>
      <trkpt lat="48.59131" lon="1.96792">
        <ele>114.4</ele>
        <time>2024-06-04T09:34:53Z</time>
      </trkpt>
      <trkpt lat="48.59135" lon="1.96778">
        <ele>114.7</ele>
        <time>2024-06-04T09:35:00Z</time>
      </trkpt>
      <trkpt lat="48.59139" lon="1.96766">
        <ele>114.6</ele>
        <time>2024-06-04T09:35:07Z</time>
      </trkpt>
      <trkpt lat="48.59142" lon="1.96752">
        <ele>114.4</ele>
        <time>2024-06-04T09:35:14Z</time>
      </trkpt>
      <trkpt lat="48.59145" lon="1.96737">
        <ele>114.6</ele>
        <time>2024-06-04T09:35:21Z</time>
      </trkpt>
      <trkpt lat="48.59146" lon="1.96723">
        <ele>114.6</ele>
        <time>2024-06-04T09:35:28Z</time>
      </trkpt>
      <trkpt lat="48.59152" lon="1.96711">
        <ele>114.9</ele>
        <time>2024-06-04T09:35:35Z</time>
      </trkpt>
      <trkpt lat="48.59154" lon="1.96696">
        <ele>115.1</ele>
        <time>2024-06-04T09:35:44Z</time>
      </trkpt>
      <trkpt lat="48.59154" lon="1.96681">
        <ele>115.1</ele>
        <time>2024-06-04T09:35:51Z</time>
      </trkpt>
      <trkpt lat="48.59157" lon="1.96667">
        <ele>115.3</ele>
        <time>2024-06-04T09:35:59Z</time>
      </trkpt>
      <trkpt lat="48.59156" lon="1.96651">
        <ele>115.2</ele>
        <time>2024-06-04T09:36:07Z</time>
      </trkpt>
      <trkpt lat="48.59158" lon="1.96637">
        <ele>115.4</ele>
        <time>2024-06-04T09:36:14Z</time>
      </trkpt>
      <trkpt lat="48.59162" lon="1.96624">
        <ele>115.8</ele>
        <time>2024-06-04T09:36:23Z</time>
      </trkpt>
      <trkpt lat="48.59167" lon="1.96612">
        <ele>116</ele>
        <time>2024-06-04T09:36:32Z</time>
      </trkpt>
      <trkpt lat="48.59176" lon="1.96605">
        <ele>116.3</ele>
        <time>2024-06-04T09:36:46Z</time>
      </trkpt>
    </trkseg>
  </trk>
</gpx>